<?xml version="1.0" encoding="UTF-8" standalone="no" ?>
<gpx xmlns="http://www.topografix.com/GPX/1/1" xmlns:xsi="http://www.w3.org/2001/XMLSchema-instance" xsi:schemaLocation="http://www.topografix.com/GPX/1/1 http://www.topografix.com/GPX/1/1/gpx.xsd" version="1.1" creator="VisuGPX - https://www.visugpx.com">
  <metadata>
    <name>30km bernis</name>
    <desc><![CDATA[Sortie vtt au départ de Bernis avec passage dans les bois de nages et solorgues et Boisiières.]]></desc>
  </metadata>
  <trk>
    <name><![CDATA[30km bernis_1]]></name>
    <trkseg>
      <trkpt lat="43.76562" lon="4.28503">
        <ele>20.3</ele>
        <time>2014-10-27T13:36:34Z</time>
      </trkpt>
      <trkpt lat="43.76562" lon="4.28503">
        <ele>65</ele>
        <time>2014-10-27T13:36:36Z</time>
      </trkpt>
      <trkpt lat="43.76587" lon="4.28524">
        <ele>79</ele>
        <time>2014-10-27T13:38:07Z</time>
      </trkpt>
      <trkpt lat="43.766" lon="4.2854">
        <ele>83</ele>
        <time>2014-10-27T13:38:13Z</time>
      </trkpt>
      <trkpt lat="43.76615" lon="4.28571">
        <ele>87</ele>
        <time>2014-10-27T13:38:21Z</time>
      </trkpt>
      <trkpt lat="43.7662" lon="4.28583">
        <ele>88</ele>
        <time>2014-10-27T13:38:24Z</time>
      </trkpt>
      <trkpt lat="43.76638" lon="4.2861">
        <ele>90</ele>
        <time>2014-10-27T13:38:32Z</time>
      </trkpt>
      <trkpt lat="43.76665" lon="4.28606">
        <ele>86</ele>
        <time>2014-10-27T13:38:39Z</time>
      </trkpt>
      <trkpt lat="43.7669" lon="4.28615">
        <ele>82</ele>
        <time>2014-10-27T13:38:44Z</time>
      </trkpt>
      <trkpt lat="43.7672" lon="4.28626">
        <ele>80</ele>
        <time>2014-10-27T13:38:50Z</time>
      </trkpt>
      <trkpt lat="43.76736" lon="4.28633">
        <ele>79</ele>
        <time>2014-10-27T13:38:53Z</time>
      </trkpt>
      <trkpt lat="43.76764" lon="4.28644">
        <ele>76</ele>
        <time>2014-10-27T13:38:58Z</time>
      </trkpt>
      <trkpt lat="43.7678" lon="4.2865">
        <ele>76</ele>
        <time>2014-10-27T13:39:01Z</time>
      </trkpt>
      <trkpt lat="43.76803" lon="4.28659">
        <ele>76</ele>
        <time>2014-10-27T13:39:05Z</time>
      </trkpt>
      <trkpt lat="43.76834" lon="4.28679">
        <ele>79</ele>
        <time>2014-10-27T13:39:11Z</time>
      </trkpt>
      <trkpt lat="43.76865" lon="4.28704">
        <ele>79</ele>
        <time>2014-10-27T13:39:17Z</time>
      </trkpt>
      <trkpt lat="43.76886" lon="4.28725">
        <ele>79</ele>
        <time>2014-10-27T13:39:23Z</time>
      </trkpt>
      <trkpt lat="43.76912" lon="4.28715">
        <ele>77</ele>
        <time>2014-10-27T13:39:30Z</time>
      </trkpt>
      <trkpt lat="43.76939" lon="4.28699">
        <ele>79</ele>
        <time>2014-10-27T13:39:36Z</time>
      </trkpt>
      <trkpt lat="43.76959" lon="4.28682">
        <ele>78</ele>
        <time>2014-10-27T13:39:41Z</time>
      </trkpt>
      <trkpt lat="43.76979" lon="4.2867">
        <ele>76</ele>
        <time>2014-10-27T13:39:46Z</time>
      </trkpt>
      <trkpt lat="43.77005" lon="4.28655">
        <ele>74</ele>
        <time>2014-10-27T13:39:52Z</time>
      </trkpt>
      <trkpt lat="43.77028" lon="4.28641">
        <ele>72</ele>
        <time>2014-10-27T13:39:57Z</time>
      </trkpt>
      <trkpt lat="43.77055" lon="4.28626">
        <ele>75</ele>
        <time>2014-10-27T13:40:03Z</time>
      </trkpt>
      <trkpt lat="43.77072" lon="4.28616">
        <ele>73</ele>
        <time>2014-10-27T13:40:07Z</time>
      </trkpt>
      <trkpt lat="43.77098" lon="4.28599">
        <ele>73</ele>
        <time>2014-10-27T13:40:14Z</time>
      </trkpt>
      <trkpt lat="43.77117" lon="4.2858">
        <ele>74</ele>
        <time>2014-10-27T13:40:19Z</time>
      </trkpt>
      <trkpt lat="43.77142" lon="4.28556">
        <ele>74</ele>
        <time>2014-10-27T13:40:25Z</time>
      </trkpt>
      <trkpt lat="43.77158" lon="4.28541">
        <ele>75</ele>
        <time>2014-10-27T13:40:29Z</time>
      </trkpt>
      <trkpt lat="43.77176" lon="4.28523">
        <ele>76</ele>
        <time>2014-10-27T13:40:34Z</time>
      </trkpt>
      <trkpt lat="43.77206" lon="4.28502">
        <ele>76</ele>
        <time>2014-10-27T13:40:41Z</time>
      </trkpt>
      <trkpt lat="43.77228" lon="4.28489">
        <ele>76</ele>
        <time>2014-10-27T13:40:46Z</time>
      </trkpt>
      <trkpt lat="43.77245" lon="4.28479">
        <ele>78</ele>
        <time>2014-10-27T13:40:50Z</time>
      </trkpt>
      <trkpt lat="43.77266" lon="4.28467">
        <ele>79</ele>
        <time>2014-10-27T13:40:55Z</time>
      </trkpt>
      <trkpt lat="43.7729" lon="4.28458">
        <ele>79</ele>
        <time>2014-10-27T13:41:00Z</time>
      </trkpt>
      <trkpt lat="43.77318" lon="4.28452">
        <ele>81</ele>
        <time>2014-10-27T13:41:06Z</time>
      </trkpt>
      <trkpt lat="43.77354" lon="4.28453">
        <ele>77</ele>
        <time>2014-10-27T13:41:13Z</time>
      </trkpt>
      <trkpt lat="43.77367" lon="4.28453">
        <ele>77</ele>
        <time>2014-10-27T13:41:19Z</time>
      </trkpt>
      <trkpt lat="43.77373" lon="4.2845">
        <ele>78</ele>
        <time>2014-10-27T13:41:23Z</time>
      </trkpt>
      <trkpt lat="43.77373" lon="4.2845">
        <ele>29</ele>
        <time>2014-10-27T13:41:31Z</time>
      </trkpt>
      <trkpt lat="43.77373" lon="4.2845">
        <ele>29</ele>
        <time>2014-10-27T13:42:32Z</time>
      </trkpt>
      <trkpt lat="43.77382" lon="4.28439">
        <ele>89</ele>
        <time>2014-10-27T13:42:32Z</time>
      </trkpt>
      <trkpt lat="43.7741" lon="4.28441">
        <ele>88</ele>
        <time>2014-10-27T13:42:37Z</time>
      </trkpt>
      <trkpt lat="43.7744" lon="4.28454">
        <ele>87</ele>
        <time>2014-10-27T13:42:43Z</time>
      </trkpt>
      <trkpt lat="43.77471" lon="4.28444">
        <ele>86</ele>
        <time>2014-10-27T13:42:50Z</time>
      </trkpt>
      <trkpt lat="43.77486" lon="4.28419">
        <ele>88</ele>
        <time>2014-10-27T13:42:55Z</time>
      </trkpt>
      <trkpt lat="43.77499" lon="4.28402">
        <ele>88</ele>
        <time>2014-10-27T13:42:59Z</time>
      </trkpt>
      <trkpt lat="43.77514" lon="4.28377">
        <ele>89</ele>
        <time>2014-10-27T13:43:04Z</time>
      </trkpt>
      <trkpt lat="43.7754" lon="4.28341">
        <ele>87</ele>
        <time>2014-10-27T13:43:10Z</time>
      </trkpt>
      <trkpt lat="43.77558" lon="4.28314">
        <ele>87</ele>
        <time>2014-10-27T13:43:14Z</time>
      </trkpt>
      <trkpt lat="43.77587" lon="4.28281">
        <ele>85</ele>
        <time>2014-10-27T13:43:20Z</time>
      </trkpt>
      <trkpt lat="43.77621" lon="4.28259">
        <ele>83</ele>
        <time>2014-10-27T13:43:26Z</time>
      </trkpt>
      <trkpt lat="43.7765" lon="4.28249">
        <ele>84</ele>
        <time>2014-10-27T13:43:31Z</time>
      </trkpt>
      <trkpt lat="43.77682" lon="4.28238">
        <ele>77</ele>
        <time>2014-10-27T13:43:35Z</time>
      </trkpt>
      <trkpt lat="43.77712" lon="4.28226">
        <ele>78</ele>
        <time>2014-10-27T13:43:40Z</time>
      </trkpt>
      <trkpt lat="43.77741" lon="4.28204">
        <ele>79</ele>
        <time>2014-10-27T13:43:45Z</time>
      </trkpt>
      <trkpt lat="43.77755" lon="4.28185">
        <ele>84</ele>
        <time>2014-10-27T13:43:48Z</time>
      </trkpt>
      <trkpt lat="43.77775" lon="4.28147">
        <ele>83</ele>
        <time>2014-10-27T13:43:53Z</time>
      </trkpt>
      <trkpt lat="43.77792" lon="4.28108">
        <ele>83</ele>
        <time>2014-10-27T13:43:58Z</time>
      </trkpt>
      <trkpt lat="43.77806" lon="4.28069">
        <ele>85</ele>
        <time>2014-10-27T13:44:03Z</time>
      </trkpt>
      <trkpt lat="43.77817" lon="4.2803">
        <ele>87</ele>
        <time>2014-10-27T13:44:08Z</time>
      </trkpt>
      <trkpt lat="43.7782" lon="4.28005">
        <ele>89</ele>
        <time>2014-10-27T13:44:11Z</time>
      </trkpt>
      <trkpt lat="43.77818" lon="4.27982">
        <ele>90</ele>
        <time>2014-10-27T13:44:14Z</time>
      </trkpt>
      <trkpt lat="43.77811" lon="4.27943">
        <ele>91</ele>
        <time>2014-10-27T13:44:20Z</time>
      </trkpt>
      <trkpt lat="43.77805" lon="4.2791">
        <ele>93</ele>
        <time>2014-10-27T13:44:25Z</time>
      </trkpt>
      <trkpt lat="43.77802" lon="4.2788">
        <ele>92</ele>
        <time>2014-10-27T13:44:31Z</time>
      </trkpt>
      <trkpt lat="43.77793" lon="4.2785">
        <ele>93</ele>
        <time>2014-10-27T13:44:37Z</time>
      </trkpt>
      <trkpt lat="43.77781" lon="4.2782">
        <ele>93</ele>
        <time>2014-10-27T13:44:43Z</time>
      </trkpt>
      <trkpt lat="43.77777" lon="4.27793">
        <ele>92</ele>
        <time>2014-10-27T13:44:48Z</time>
      </trkpt>
      <trkpt lat="43.7778" lon="4.27759">
        <ele>91</ele>
        <time>2014-10-27T13:44:54Z</time>
      </trkpt>
      <trkpt lat="43.77785" lon="4.27725">
        <ele>85</ele>
        <time>2014-10-27T13:45:00Z</time>
      </trkpt>
      <trkpt lat="43.77792" lon="4.27689">
        <ele>84</ele>
        <time>2014-10-27T13:45:05Z</time>
      </trkpt>
      <trkpt lat="43.778" lon="4.27673">
        <ele>84</ele>
        <time>2014-10-27T13:45:08Z</time>
      </trkpt>
      <trkpt lat="43.77812" lon="4.2764">
        <ele>85</ele>
        <time>2014-10-27T13:45:14Z</time>
      </trkpt>
      <trkpt lat="43.77824" lon="4.27614">
        <ele>85</ele>
        <time>2014-10-27T13:45:19Z</time>
      </trkpt>
      <trkpt lat="43.77833" lon="4.27599">
        <ele>87</ele>
        <time>2014-10-27T13:45:22Z</time>
      </trkpt>
      <trkpt lat="43.77844" lon="4.2758">
        <ele>87</ele>
        <time>2014-10-27T13:45:26Z</time>
      </trkpt>
      <trkpt lat="43.77856" lon="4.27558">
        <ele>89</ele>
        <time>2014-10-27T13:45:31Z</time>
      </trkpt>
      <trkpt lat="43.77865" lon="4.27522">
        <ele>89</ele>
        <time>2014-10-27T13:45:38Z</time>
      </trkpt>
      <trkpt lat="43.77879" lon="4.27506">
        <ele>88</ele>
        <time>2014-10-27T13:45:43Z</time>
      </trkpt>
      <trkpt lat="43.77877" lon="4.2748">
        <ele>93</ele>
        <time>2014-10-27T13:45:50Z</time>
      </trkpt>
      <trkpt lat="43.77861" lon="4.27463">
        <ele>96</ele>
        <time>2014-10-27T13:45:55Z</time>
      </trkpt>
      <trkpt lat="43.77851" lon="4.27449">
        <ele>98</ele>
        <time>2014-10-27T13:45:59Z</time>
      </trkpt>
      <trkpt lat="43.77832" lon="4.27436">
        <ele>103</ele>
        <time>2014-10-27T13:46:05Z</time>
      </trkpt>
      <trkpt lat="43.77819" lon="4.27427">
        <ele>102</ele>
        <time>2014-10-27T13:46:09Z</time>
      </trkpt>
      <trkpt lat="43.77809" lon="4.2742">
        <ele>102</ele>
        <time>2014-10-27T13:46:12Z</time>
      </trkpt>
      <trkpt lat="43.77792" lon="4.27396">
        <ele>106</ele>
        <time>2014-10-27T13:46:19Z</time>
      </trkpt>
      <trkpt lat="43.77779" lon="4.27377">
        <ele>109</ele>
        <time>2014-10-27T13:46:26Z</time>
      </trkpt>
      <trkpt lat="43.77767" lon="4.27355">
        <ele>107</ele>
        <time>2014-10-27T13:46:32Z</time>
      </trkpt>
      <trkpt lat="43.77759" lon="4.27321">
        <ele>110</ele>
        <time>2014-10-27T13:46:40Z</time>
      </trkpt>
      <trkpt lat="43.77759" lon="4.27306">
        <ele>111</ele>
        <time>2014-10-27T13:46:45Z</time>
      </trkpt>
      <trkpt lat="43.77788" lon="4.27284">
        <ele>100</ele>
        <time>2014-10-27T13:46:54Z</time>
      </trkpt>
      <trkpt lat="43.77814" lon="4.27268">
        <ele>101</ele>
        <time>2014-10-27T13:47:01Z</time>
      </trkpt>
      <trkpt lat="43.77838" lon="4.27253">
        <ele>98</ele>
        <time>2014-10-27T13:47:08Z</time>
      </trkpt>
      <trkpt lat="43.77851" lon="4.27241">
        <ele>98</ele>
        <time>2014-10-27T13:47:12Z</time>
      </trkpt>
      <trkpt lat="43.77873" lon="4.27217">
        <ele>97</ele>
        <time>2014-10-27T13:47:18Z</time>
      </trkpt>
      <trkpt lat="43.77893" lon="4.27192">
        <ele>100</ele>
        <time>2014-10-27T13:47:24Z</time>
      </trkpt>
      <trkpt lat="43.7791" lon="4.27171">
        <ele>101</ele>
        <time>2014-10-27T13:47:29Z</time>
      </trkpt>
      <trkpt lat="43.77936" lon="4.27149">
        <ele>103</ele>
        <time>2014-10-27T13:47:36Z</time>
      </trkpt>
      <trkpt lat="43.77955" lon="4.27133">
        <ele>104</ele>
        <time>2014-10-27T13:47:41Z</time>
      </trkpt>
      <trkpt lat="43.7798" lon="4.27111">
        <ele>98</ele>
        <time>2014-10-27T13:47:47Z</time>
      </trkpt>
      <trkpt lat="43.77998" lon="4.27083">
        <ele>95</ele>
        <time>2014-10-27T13:47:53Z</time>
      </trkpt>
      <trkpt lat="43.78012" lon="4.27049">
        <ele>97</ele>
        <time>2014-10-27T13:48:00Z</time>
      </trkpt>
      <trkpt lat="43.78016" lon="4.27022">
        <ele>99</ele>
        <time>2014-10-27T13:48:05Z</time>
      </trkpt>
      <trkpt lat="43.78021" lon="4.2698">
        <ele>101</ele>
        <time>2014-10-27T13:48:12Z</time>
      </trkpt>
      <trkpt lat="43.7803" lon="4.2694">
        <ele>104</ele>
        <time>2014-10-27T13:48:19Z</time>
      </trkpt>
      <trkpt lat="43.78038" lon="4.269">
        <ele>101</ele>
        <time>2014-10-27T13:48:26Z</time>
      </trkpt>
      <trkpt lat="43.78045" lon="4.26853">
        <ele>102</ele>
        <time>2014-10-27T13:48:33Z</time>
      </trkpt>
      <trkpt lat="43.78048" lon="4.26816">
        <ele>101</ele>
        <time>2014-10-27T13:48:39Z</time>
      </trkpt>
      <trkpt lat="43.78049" lon="4.26794">
        <ele>101</ele>
        <time>2014-10-27T13:48:44Z</time>
      </trkpt>
      <trkpt lat="43.78052" lon="4.26758">
        <ele>103</ele>
        <time>2014-10-27T13:48:52Z</time>
      </trkpt>
      <trkpt lat="43.78062" lon="4.26731">
        <ele>101</ele>
        <time>2014-10-27T13:48:58Z</time>
      </trkpt>
      <trkpt lat="43.78076" lon="4.26711">
        <ele>100</ele>
        <time>2014-10-27T13:49:04Z</time>
      </trkpt>
      <trkpt lat="43.78095" lon="4.26686">
        <ele>102</ele>
        <time>2014-10-27T13:49:13Z</time>
      </trkpt>
      <trkpt lat="43.78103" lon="4.26666">
        <ele>103</ele>
        <time>2014-10-27T13:49:18Z</time>
      </trkpt>
      <trkpt lat="43.78118" lon="4.26636">
        <ele>103</ele>
        <time>2014-10-27T13:49:25Z</time>
      </trkpt>
      <trkpt lat="43.78131" lon="4.26616">
        <ele>105</ele>
        <time>2014-10-27T13:49:30Z</time>
      </trkpt>
      <trkpt lat="43.7814" lon="4.26593">
        <ele>104</ele>
        <time>2014-10-27T13:49:36Z</time>
      </trkpt>
      <trkpt lat="43.78152" lon="4.26579">
        <ele>107</ele>
        <time>2014-10-27T13:49:43Z</time>
      </trkpt>
      <trkpt lat="43.78173" lon="4.26576">
        <ele>104</ele>
        <time>2014-10-27T13:49:51Z</time>
      </trkpt>
      <trkpt lat="43.78173" lon="4.26576">
        <ele>104</ele>
        <time>2014-10-27T13:49:56Z</time>
      </trkpt>
      <trkpt lat="43.78173" lon="4.26576">
        <ele>53.1</ele>
        <time>2014-10-27T13:49:56Z</time>
      </trkpt>
      <trkpt lat="43.78173" lon="4.26576">
        <ele>53.1</ele>
        <time>2014-10-27T13:52:55Z</time>
      </trkpt>
      <trkpt lat="43.78183" lon="4.26559">
        <ele>103</ele>
        <time>2014-10-27T13:52:55Z</time>
      </trkpt>
      <trkpt lat="43.78197" lon="4.26545">
        <ele>100</ele>
        <time>2014-10-27T13:53:00Z</time>
      </trkpt>
      <trkpt lat="43.78215" lon="4.26528">
        <ele>101</ele>
        <time>2014-10-27T13:53:07Z</time>
      </trkpt>
      <trkpt lat="43.78233" lon="4.26502">
        <ele>104</ele>
        <time>2014-10-27T13:53:15Z</time>
      </trkpt>
      <trkpt lat="43.78248" lon="4.2648">
        <ele>107</ele>
        <time>2014-10-27T13:53:22Z</time>
      </trkpt>
      <trkpt lat="43.78251" lon="4.26459">
        <ele>107</ele>
        <time>2014-10-27T13:53:27Z</time>
      </trkpt>
      <trkpt lat="43.78251" lon="4.26459">
        <ele>107</ele>
        <time>2014-10-27T13:53:33Z</time>
      </trkpt>
      <trkpt lat="43.78251" lon="4.26459">
        <ele>55.5</ele>
        <time>2014-10-27T13:53:33Z</time>
      </trkpt>
      <trkpt lat="43.78251" lon="4.26459">
        <ele>55.5</ele>
        <time>2014-10-27T13:53:38Z</time>
      </trkpt>
      <trkpt lat="43.78243" lon="4.26448">
        <ele>110</ele>
        <time>2014-10-27T13:53:38Z</time>
      </trkpt>
      <trkpt lat="43.78226" lon="4.26427">
        <ele>109</ele>
        <time>2014-10-27T13:53:50Z</time>
      </trkpt>
      <trkpt lat="43.78214" lon="4.26416">
        <ele>112</ele>
        <time>2014-10-27T13:53:56Z</time>
      </trkpt>
      <trkpt lat="43.782" lon="4.26405">
        <ele>114</ele>
        <time>2014-10-27T13:54:04Z</time>
      </trkpt>
      <trkpt lat="43.7819" lon="4.26393">
        <ele>120</ele>
        <time>2014-10-27T13:54:18Z</time>
      </trkpt>
      <trkpt lat="43.78174" lon="4.2639">
        <ele>118</ele>
        <time>2014-10-27T13:54:30Z</time>
      </trkpt>
      <trkpt lat="43.78153" lon="4.26384">
        <ele>120</ele>
        <time>2014-10-27T13:54:43Z</time>
      </trkpt>
      <trkpt lat="43.7814" lon="4.26371">
        <ele>122</ele>
        <time>2014-10-27T13:54:52Z</time>
      </trkpt>
      <trkpt lat="43.78125" lon="4.2636">
        <ele>132</ele>
        <time>2014-10-27T13:55:04Z</time>
      </trkpt>
      <trkpt lat="43.7812" lon="4.26333">
        <ele>131</ele>
        <time>2014-10-27T13:55:16Z</time>
      </trkpt>
      <trkpt lat="43.78123" lon="4.26317">
        <ele>136</ele>
        <time>2014-10-27T13:55:25Z</time>
      </trkpt>
      <trkpt lat="43.78109" lon="4.26287">
        <ele>138</ele>
        <time>2014-10-27T13:55:45Z</time>
      </trkpt>
      <trkpt lat="43.78094" lon="4.26275">
        <ele>139</ele>
        <time>2014-10-27T13:55:59Z</time>
      </trkpt>
      <trkpt lat="43.78074" lon="4.26263">
        <ele>143</ele>
        <time>2014-10-27T13:56:13Z</time>
      </trkpt>
      <trkpt lat="43.78074" lon="4.26239">
        <ele>141</ele>
        <time>2014-10-27T13:56:21Z</time>
      </trkpt>
      <trkpt lat="43.7807" lon="4.26212">
        <ele>137</ele>
        <time>2014-10-27T13:56:31Z</time>
      </trkpt>
      <trkpt lat="43.78077" lon="4.26197">
        <ele>136</ele>
        <time>2014-10-27T13:56:37Z</time>
      </trkpt>
      <trkpt lat="43.78088" lon="4.26171">
        <ele>141</ele>
        <time>2014-10-27T13:56:47Z</time>
      </trkpt>
      <trkpt lat="43.78101" lon="4.2615">
        <ele>140</ele>
        <time>2014-10-27T13:56:57Z</time>
      </trkpt>
      <trkpt lat="43.78117" lon="4.2613">
        <ele>143</ele>
        <time>2014-10-27T13:57:05Z</time>
      </trkpt>
      <trkpt lat="43.78136" lon="4.26104">
        <ele>146</ele>
        <time>2014-10-27T13:57:13Z</time>
      </trkpt>
      <trkpt lat="43.78145" lon="4.26077">
        <ele>147</ele>
        <time>2014-10-27T13:57:21Z</time>
      </trkpt>
      <trkpt lat="43.78155" lon="4.26042">
        <ele>144</ele>
        <time>2014-10-27T13:57:30Z</time>
      </trkpt>
      <trkpt lat="43.78157" lon="4.26008">
        <ele>137</ele>
        <time>2014-10-27T13:57:36Z</time>
      </trkpt>
      <trkpt lat="43.78143" lon="4.25977">
        <ele>142</ele>
        <time>2014-10-27T13:57:43Z</time>
      </trkpt>
      <trkpt lat="43.78136" lon="4.25947">
        <ele>148</ele>
        <time>2014-10-27T13:57:50Z</time>
      </trkpt>
      <trkpt lat="43.78133" lon="4.25941">
        <ele>147</ele>
        <time>2014-10-27T13:57:53Z</time>
      </trkpt>
      <trkpt lat="43.78133" lon="4.25941">
        <ele>90.1</ele>
        <time>2014-10-27T13:57:58Z</time>
      </trkpt>
      <trkpt lat="43.78133" lon="4.25941">
        <ele>90.1</ele>
        <time>2014-10-27T13:58:04Z</time>
      </trkpt>
      <trkpt lat="43.78137" lon="4.25934">
        <ele>139</ele>
        <time>2014-10-27T13:58:04Z</time>
      </trkpt>
      <trkpt lat="43.78145" lon="4.25908">
        <ele>146</ele>
        <time>2014-10-27T13:58:18Z</time>
      </trkpt>
      <trkpt lat="43.78145" lon="4.25908">
        <ele>91.1</ele>
        <time>2014-10-27T13:58:26Z</time>
      </trkpt>
      <trkpt lat="43.78145" lon="4.25908">
        <ele>91.1</ele>
        <time>2014-10-27T13:58:32Z</time>
      </trkpt>
      <trkpt lat="43.78139" lon="4.25896">
        <ele>143</ele>
        <time>2014-10-27T13:58:32Z</time>
      </trkpt>
      <trkpt lat="43.78133" lon="4.2586">
        <ele>141</ele>
        <time>2014-10-27T13:58:46Z</time>
      </trkpt>
      <trkpt lat="43.78164" lon="4.25857">
        <ele>135</ele>
        <time>2014-10-27T13:58:57Z</time>
      </trkpt>
      <trkpt lat="43.78169" lon="4.2588">
        <ele>138</ele>
        <time>2014-10-27T13:59:07Z</time>
      </trkpt>
      <trkpt lat="43.78169" lon="4.2588">
        <ele>138</ele>
        <time>2014-10-27T13:59:13Z</time>
      </trkpt>
      <trkpt lat="43.78169" lon="4.2588">
        <ele>91.1</ele>
        <time>2014-10-27T13:59:13Z</time>
      </trkpt>
      <trkpt lat="43.78169" lon="4.2588">
        <ele>91.1</ele>
        <time>2014-10-27T13:59:18Z</time>
      </trkpt>
      <trkpt lat="43.78176" lon="4.25856">
        <ele>138</ele>
        <time>2014-10-27T13:59:18Z</time>
      </trkpt>
      <trkpt lat="43.7817" lon="4.25837">
        <ele>140</ele>
        <time>2014-10-27T13:59:27Z</time>
      </trkpt>
      <trkpt lat="43.7817" lon="4.25818">
        <ele>139</ele>
        <time>2014-10-27T13:59:37Z</time>
      </trkpt>
      <trkpt lat="43.78169" lon="4.25792">
        <ele>144</ele>
        <time>2014-10-27T13:59:47Z</time>
      </trkpt>
      <trkpt lat="43.78161" lon="4.25767">
        <ele>144</ele>
        <time>2014-10-27T13:59:55Z</time>
      </trkpt>
      <trkpt lat="43.78143" lon="4.25764">
        <ele>146</ele>
        <time>2014-10-27T14:00:03Z</time>
      </trkpt>
      <trkpt lat="43.78137" lon="4.25754">
        <ele>139</ele>
        <time>2014-10-27T14:00:13Z</time>
      </trkpt>
      <trkpt lat="43.78122" lon="4.25763">
        <ele>136</ele>
        <time>2014-10-27T14:00:22Z</time>
      </trkpt>
      <trkpt lat="43.78112" lon="4.2577">
        <ele>134</ele>
        <time>2014-10-27T14:00:34Z</time>
      </trkpt>
      <trkpt lat="43.78101" lon="4.25751">
        <ele>134</ele>
        <time>2014-10-27T14:00:44Z</time>
      </trkpt>
      <trkpt lat="43.78091" lon="4.25717">
        <ele>134</ele>
        <time>2014-10-27T14:00:54Z</time>
      </trkpt>
      <trkpt lat="43.78078" lon="4.25706">
        <ele>134</ele>
        <time>2014-10-27T14:00:59Z</time>
      </trkpt>
      <trkpt lat="43.78061" lon="4.25701">
        <ele>133</ele>
        <time>2014-10-27T14:01:08Z</time>
      </trkpt>
      <trkpt lat="43.78061" lon="4.25679">
        <ele>133</ele>
        <time>2014-10-27T14:01:16Z</time>
      </trkpt>
      <trkpt lat="43.78067" lon="4.25665">
        <ele>134</ele>
        <time>2014-10-27T14:01:25Z</time>
      </trkpt>
      <trkpt lat="43.78079" lon="4.25639">
        <ele>135</ele>
        <time>2014-10-27T14:01:36Z</time>
      </trkpt>
      <trkpt lat="43.78086" lon="4.25628">
        <ele>133</ele>
        <time>2014-10-27T14:01:41Z</time>
      </trkpt>
      <trkpt lat="43.78085" lon="4.25597">
        <ele>136</ele>
        <time>2014-10-27T14:01:53Z</time>
      </trkpt>
      <trkpt lat="43.78077" lon="4.25571">
        <ele>132</ele>
        <time>2014-10-27T14:02:03Z</time>
      </trkpt>
      <trkpt lat="43.78061" lon="4.25557">
        <ele>133</ele>
        <time>2014-10-27T14:02:09Z</time>
      </trkpt>
      <trkpt lat="43.78058" lon="4.25529">
        <ele>135</ele>
        <time>2014-10-27T14:02:16Z</time>
      </trkpt>
      <trkpt lat="43.78052" lon="4.25498">
        <ele>140</ele>
        <time>2014-10-27T14:02:23Z</time>
      </trkpt>
      <trkpt lat="43.78041" lon="4.2546">
        <ele>134</ele>
        <time>2014-10-27T14:02:30Z</time>
      </trkpt>
      <trkpt lat="43.78026" lon="4.25455">
        <ele>130</ele>
        <time>2014-10-27T14:02:35Z</time>
      </trkpt>
      <trkpt lat="43.7802" lon="4.25435">
        <ele>132</ele>
        <time>2014-10-27T14:02:40Z</time>
      </trkpt>
      <trkpt lat="43.78002" lon="4.25395">
        <ele>130</ele>
        <time>2014-10-27T14:02:48Z</time>
      </trkpt>
      <trkpt lat="43.77981" lon="4.25369">
        <ele>131</ele>
        <time>2014-10-27T14:02:55Z</time>
      </trkpt>
      <trkpt lat="43.77954" lon="4.25366">
        <ele>130</ele>
        <time>2014-10-27T14:03:02Z</time>
      </trkpt>
      <trkpt lat="43.77943" lon="4.25347">
        <ele>130</ele>
        <time>2014-10-27T14:03:07Z</time>
      </trkpt>
      <trkpt lat="43.7793" lon="4.253">
        <ele>130</ele>
        <time>2014-10-27T14:03:15Z</time>
      </trkpt>
      <trkpt lat="43.77923" lon="4.25251">
        <ele>130</ele>
        <time>2014-10-27T14:03:22Z</time>
      </trkpt>
      <trkpt lat="43.77916" lon="4.25228">
        <ele>128</ele>
        <time>2014-10-27T14:03:27Z</time>
      </trkpt>
      <trkpt lat="43.77912" lon="4.25212">
        <ele>127</ele>
        <time>2014-10-27T14:03:33Z</time>
      </trkpt>
      <trkpt lat="43.77907" lon="4.25167">
        <ele>128</ele>
        <time>2014-10-27T14:03:44Z</time>
      </trkpt>
      <trkpt lat="43.77926" lon="4.25152">
        <ele>124</ele>
        <time>2014-10-27T14:03:51Z</time>
      </trkpt>
      <trkpt lat="43.77942" lon="4.25146">
        <ele>120</ele>
        <time>2014-10-27T14:03:57Z</time>
      </trkpt>
      <trkpt lat="43.77962" lon="4.25139">
        <ele>124</ele>
        <time>2014-10-27T14:04:06Z</time>
      </trkpt>
      <trkpt lat="43.77974" lon="4.25122">
        <ele>124</ele>
        <time>2014-10-27T14:04:14Z</time>
      </trkpt>
      <trkpt lat="43.77985" lon="4.25105">
        <ele>119</ele>
        <time>2014-10-27T14:04:22Z</time>
      </trkpt>
      <trkpt lat="43.77985" lon="4.25105">
        <ele>119</ele>
        <time>2014-10-27T14:04:30Z</time>
      </trkpt>
      <trkpt lat="43.77985" lon="4.25105">
        <ele>77.2</ele>
        <time>2014-10-27T14:04:30Z</time>
      </trkpt>
      <trkpt lat="43.77985" lon="4.25105">
        <ele>77.2</ele>
        <time>2014-10-27T14:05:10Z</time>
      </trkpt>
      <trkpt lat="43.7796" lon="4.25113">
        <ele>122</ele>
        <time>2014-10-27T14:05:10Z</time>
      </trkpt>
      <trkpt lat="43.77942" lon="4.25125">
        <ele>125</ele>
        <time>2014-10-27T14:05:15Z</time>
      </trkpt>
      <trkpt lat="43.77918" lon="4.25131">
        <ele>123</ele>
        <time>2014-10-27T14:05:21Z</time>
      </trkpt>
      <trkpt lat="43.77902" lon="4.2513">
        <ele>122</ele>
        <time>2014-10-27T14:05:25Z</time>
      </trkpt>
      <trkpt lat="43.77882" lon="4.25143">
        <ele>124</ele>
        <time>2014-10-27T14:05:32Z</time>
      </trkpt>
      <trkpt lat="43.7786" lon="4.25151">
        <ele>124</ele>
        <time>2014-10-27T14:05:39Z</time>
      </trkpt>
      <trkpt lat="43.77838" lon="4.25167">
        <ele>121</ele>
        <time>2014-10-27T14:05:48Z</time>
      </trkpt>
      <trkpt lat="43.7782" lon="4.25174">
        <ele>124</ele>
        <time>2014-10-27T14:05:58Z</time>
      </trkpt>
      <trkpt lat="43.77803" lon="4.25175">
        <ele>120</ele>
        <time>2014-10-27T14:06:07Z</time>
      </trkpt>
      <trkpt lat="43.77776" lon="4.25184">
        <ele>126</ele>
        <time>2014-10-27T14:06:18Z</time>
      </trkpt>
      <trkpt lat="43.77754" lon="4.25196">
        <ele>125</ele>
        <time>2014-10-27T14:06:25Z</time>
      </trkpt>
      <trkpt lat="43.77736" lon="4.25213">
        <ele>126</ele>
        <time>2014-10-27T14:06:31Z</time>
      </trkpt>
      <trkpt lat="43.77704" lon="4.2523">
        <ele>116</ele>
        <time>2014-10-27T14:06:38Z</time>
      </trkpt>
      <trkpt lat="43.77682" lon="4.25236">
        <ele>117</ele>
        <time>2014-10-27T14:06:44Z</time>
      </trkpt>
      <trkpt lat="43.7767" lon="4.25253">
        <ele>117</ele>
        <time>2014-10-27T14:06:50Z</time>
      </trkpt>
      <trkpt lat="43.77647" lon="4.2526">
        <ele>116</ele>
        <time>2014-10-27T14:06:56Z</time>
      </trkpt>
      <trkpt lat="43.77626" lon="4.25273">
        <ele>116</ele>
        <time>2014-10-27T14:07:02Z</time>
      </trkpt>
      <trkpt lat="43.77604" lon="4.2528">
        <ele>115</ele>
        <time>2014-10-27T14:07:07Z</time>
      </trkpt>
      <trkpt lat="43.77568" lon="4.25283">
        <ele>111</ele>
        <time>2014-10-27T14:07:17Z</time>
      </trkpt>
      <trkpt lat="43.77535" lon="4.25286">
        <ele>108</ele>
        <time>2014-10-27T14:07:24Z</time>
      </trkpt>
      <trkpt lat="43.77511" lon="4.2528">
        <ele>107</ele>
        <time>2014-10-27T14:07:30Z</time>
      </trkpt>
      <trkpt lat="43.77488" lon="4.25265">
        <ele>111</ele>
        <time>2014-10-27T14:07:36Z</time>
      </trkpt>
      <trkpt lat="43.77474" lon="4.25253">
        <ele>109</ele>
        <time>2014-10-27T14:07:39Z</time>
      </trkpt>
      <trkpt lat="43.77461" lon="4.25239">
        <ele>111</ele>
        <time>2014-10-27T14:07:42Z</time>
      </trkpt>
      <trkpt lat="43.77429" lon="4.2522">
        <ele>110</ele>
        <time>2014-10-27T14:07:48Z</time>
      </trkpt>
      <trkpt lat="43.77399" lon="4.25213">
        <ele>112</ele>
        <time>2014-10-27T14:07:54Z</time>
      </trkpt>
      <trkpt lat="43.7737" lon="4.25199">
        <ele>106</ele>
        <time>2014-10-27T14:08:01Z</time>
      </trkpt>
      <trkpt lat="43.77347" lon="4.25196">
        <ele>111</ele>
        <time>2014-10-27T14:08:06Z</time>
      </trkpt>
      <trkpt lat="43.77326" lon="4.25195">
        <ele>109</ele>
        <time>2014-10-27T14:08:12Z</time>
      </trkpt>
      <trkpt lat="43.77296" lon="4.25214">
        <ele>107</ele>
        <time>2014-10-27T14:08:22Z</time>
      </trkpt>
      <trkpt lat="43.77274" lon="4.25209">
        <ele>109</ele>
        <time>2014-10-27T14:08:29Z</time>
      </trkpt>
      <trkpt lat="43.77256" lon="4.25214">
        <ele>107</ele>
        <time>2014-10-27T14:08:35Z</time>
      </trkpt>
      <trkpt lat="43.7723" lon="4.25206">
        <ele>106</ele>
        <time>2014-10-27T14:08:40Z</time>
      </trkpt>
      <trkpt lat="43.77216" lon="4.25212">
        <ele>104</ele>
        <time>2014-10-27T14:08:45Z</time>
      </trkpt>
      <trkpt lat="43.77202" lon="4.25221">
        <ele>105</ele>
        <time>2014-10-27T14:08:51Z</time>
      </trkpt>
      <trkpt lat="43.77186" lon="4.25239">
        <ele>108</ele>
        <time>2014-10-27T14:08:59Z</time>
      </trkpt>
      <trkpt lat="43.77166" lon="4.2526">
        <ele>111</ele>
        <time>2014-10-27T14:09:07Z</time>
      </trkpt>
      <trkpt lat="43.77159" lon="4.25273">
        <ele>111</ele>
        <time>2014-10-27T14:09:11Z</time>
      </trkpt>
      <trkpt lat="43.7715" lon="4.25289">
        <ele>114</ele>
        <time>2014-10-27T14:09:17Z</time>
      </trkpt>
      <trkpt lat="43.77134" lon="4.25309">
        <ele>116</ele>
        <time>2014-10-27T14:09:28Z</time>
      </trkpt>
      <trkpt lat="43.77131" lon="4.25328">
        <ele>114</ele>
        <time>2014-10-27T14:09:35Z</time>
      </trkpt>
      <trkpt lat="43.77129" lon="4.25346">
        <ele>115</ele>
        <time>2014-10-27T14:09:42Z</time>
      </trkpt>
      <trkpt lat="43.7713" lon="4.2537">
        <ele>118</ele>
        <time>2014-10-27T14:09:53Z</time>
      </trkpt>
      <trkpt lat="43.77118" lon="4.25392">
        <ele>121</ele>
        <time>2014-10-27T14:10:03Z</time>
      </trkpt>
      <trkpt lat="43.77115" lon="4.25421">
        <ele>118</ele>
        <time>2014-10-27T14:10:13Z</time>
      </trkpt>
      <trkpt lat="43.77116" lon="4.25438">
        <ele>119</ele>
        <time>2014-10-27T14:10:20Z</time>
      </trkpt>
      <trkpt lat="43.77112" lon="4.25464">
        <ele>120</ele>
        <time>2014-10-27T14:10:30Z</time>
      </trkpt>
      <trkpt lat="43.77112" lon="4.25468">
        <ele>121</ele>
        <time>2014-10-27T14:10:32Z</time>
      </trkpt>
      <trkpt lat="43.77112" lon="4.25468">
        <ele>74.1</ele>
        <time>2014-10-27T14:10:40Z</time>
      </trkpt>
      <trkpt lat="43.77112" lon="4.25468">
        <ele>74.1</ele>
        <time>2014-10-27T14:11:46Z</time>
      </trkpt>
      <trkpt lat="43.77093" lon="4.25473">
        <ele>121</ele>
        <time>2014-10-27T14:11:46Z</time>
      </trkpt>
      <trkpt lat="43.77068" lon="4.25477">
        <ele>118</ele>
        <time>2014-10-27T14:11:52Z</time>
      </trkpt>
      <trkpt lat="43.77037" lon="4.25482">
        <ele>114</ele>
        <time>2014-10-27T14:11:58Z</time>
      </trkpt>
      <trkpt lat="43.77021" lon="4.25479">
        <ele>112</ele>
        <time>2014-10-27T14:12:03Z</time>
      </trkpt>
      <trkpt lat="43.77002" lon="4.25474">
        <ele>111</ele>
        <time>2014-10-27T14:12:09Z</time>
      </trkpt>
      <trkpt lat="43.76973" lon="4.25483">
        <ele>114</ele>
        <time>2014-10-27T14:12:16Z</time>
      </trkpt>
      <trkpt lat="43.76961" lon="4.25465">
        <ele>112</ele>
        <time>2014-10-27T14:12:21Z</time>
      </trkpt>
      <trkpt lat="43.76942" lon="4.25452">
        <ele>111</ele>
        <time>2014-10-27T14:12:28Z</time>
      </trkpt>
      <trkpt lat="43.76915" lon="4.25437">
        <ele>108</ele>
        <time>2014-10-27T14:12:35Z</time>
      </trkpt>
      <trkpt lat="43.76894" lon="4.25437">
        <ele>107</ele>
        <time>2014-10-27T14:12:41Z</time>
      </trkpt>
      <trkpt lat="43.76875" lon="4.25457">
        <ele>105</ele>
        <time>2014-10-27T14:12:47Z</time>
      </trkpt>
      <trkpt lat="43.76848" lon="4.25457">
        <ele>106</ele>
        <time>2014-10-27T14:12:54Z</time>
      </trkpt>
      <trkpt lat="43.76827" lon="4.2546">
        <ele>102</ele>
        <time>2014-10-27T14:12:59Z</time>
      </trkpt>
      <trkpt lat="43.76807" lon="4.25461">
        <ele>101</ele>
        <time>2014-10-27T14:13:04Z</time>
      </trkpt>
      <trkpt lat="43.76773" lon="4.25467">
        <ele>102</ele>
        <time>2014-10-27T14:13:12Z</time>
      </trkpt>
      <trkpt lat="43.76749" lon="4.25472">
        <ele>98</ele>
        <time>2014-10-27T14:13:17Z</time>
      </trkpt>
      <trkpt lat="43.76729" lon="4.25477">
        <ele>98</ele>
        <time>2014-10-27T14:13:22Z</time>
      </trkpt>
      <trkpt lat="43.76707" lon="4.25476">
        <ele>96</ele>
        <time>2014-10-27T14:13:27Z</time>
      </trkpt>
      <trkpt lat="43.7668" lon="4.25471">
        <ele>97</ele>
        <time>2014-10-27T14:13:34Z</time>
      </trkpt>
      <trkpt lat="43.76663" lon="4.25478">
        <ele>96</ele>
        <time>2014-10-27T14:13:39Z</time>
      </trkpt>
      <trkpt lat="43.76636" lon="4.25504">
        <ele>97</ele>
        <time>2014-10-27T14:13:46Z</time>
      </trkpt>
      <trkpt lat="43.76605" lon="4.2552">
        <ele>93</ele>
        <time>2014-10-27T14:13:53Z</time>
      </trkpt>
      <trkpt lat="43.76577" lon="4.25534">
        <ele>91</ele>
        <time>2014-10-27T14:13:59Z</time>
      </trkpt>
      <trkpt lat="43.7656" lon="4.25538">
        <ele>90</ele>
        <time>2014-10-27T14:14:03Z</time>
      </trkpt>
      <trkpt lat="43.76542" lon="4.25544">
        <ele>91</ele>
        <time>2014-10-27T14:14:08Z</time>
      </trkpt>
      <trkpt lat="43.76504" lon="4.25553">
        <ele>91</ele>
        <time>2014-10-27T14:14:15Z</time>
      </trkpt>
      <trkpt lat="43.76486" lon="4.25559">
        <ele>90</ele>
        <time>2014-10-27T14:14:18Z</time>
      </trkpt>
      <trkpt lat="43.76452" lon="4.25562">
        <ele>93</ele>
        <time>2014-10-27T14:14:23Z</time>
      </trkpt>
      <trkpt lat="43.76429" lon="4.25552">
        <ele>89</ele>
        <time>2014-10-27T14:14:29Z</time>
      </trkpt>
      <trkpt lat="43.76413" lon="4.25518">
        <ele>83</ele>
        <time>2014-10-27T14:14:34Z</time>
      </trkpt>
      <trkpt lat="43.76393" lon="4.25471">
        <ele>77</ele>
        <time>2014-10-27T14:14:40Z</time>
      </trkpt>
      <trkpt lat="43.7638" lon="4.25443">
        <ele>75</ele>
        <time>2014-10-27T14:14:47Z</time>
      </trkpt>
      <trkpt lat="43.76421" lon="4.25407">
        <ele>73</ele>
        <time>2014-10-27T14:14:57Z</time>
      </trkpt>
      <trkpt lat="43.76453" lon="4.25404">
        <ele>74</ele>
        <time>2014-10-27T14:15:03Z</time>
      </trkpt>
      <trkpt lat="43.76483" lon="4.25401">
        <ele>73</ele>
        <time>2014-10-27T14:15:09Z</time>
      </trkpt>
      <trkpt lat="43.76502" lon="4.25398">
        <ele>75</ele>
        <time>2014-10-27T14:15:14Z</time>
      </trkpt>
      <trkpt lat="43.7652" lon="4.25395">
        <ele>75</ele>
        <time>2014-10-27T14:15:19Z</time>
      </trkpt>
      <trkpt lat="43.76546" lon="4.25391">
        <ele>77</ele>
        <time>2014-10-27T14:15:26Z</time>
      </trkpt>
      <trkpt lat="43.76566" lon="4.25385">
        <ele>79</ele>
        <time>2014-10-27T14:15:31Z</time>
      </trkpt>
      <trkpt lat="43.76578" lon="4.25381">
        <ele>80</ele>
        <time>2014-10-27T14:15:34Z</time>
      </trkpt>
      <trkpt lat="43.766" lon="4.25373">
        <ele>80</ele>
        <time>2014-10-27T14:15:40Z</time>
      </trkpt>
      <trkpt lat="43.76623" lon="4.25363">
        <ele>79</ele>
        <time>2014-10-27T14:15:46Z</time>
      </trkpt>
      <trkpt lat="43.76647" lon="4.25351">
        <ele>80</ele>
        <time>2014-10-27T14:15:52Z</time>
      </trkpt>
      <trkpt lat="43.76673" lon="4.25344">
        <ele>80</ele>
        <time>2014-10-27T14:15:58Z</time>
      </trkpt>
      <trkpt lat="43.76692" lon="4.25337">
        <ele>80</ele>
        <time>2014-10-27T14:16:03Z</time>
      </trkpt>
      <trkpt lat="43.76717" lon="4.25331">
        <ele>79</ele>
        <time>2014-10-27T14:16:09Z</time>
      </trkpt>
      <trkpt lat="43.76742" lon="4.25327">
        <ele>79</ele>
        <time>2014-10-27T14:16:15Z</time>
      </trkpt>
      <trkpt lat="43.76759" lon="4.25326">
        <ele>79</ele>
        <time>2014-10-27T14:16:19Z</time>
      </trkpt>
      <trkpt lat="43.76781" lon="4.25322">
        <ele>80</ele>
        <time>2014-10-27T14:16:25Z</time>
      </trkpt>
      <trkpt lat="43.76805" lon="4.25314">
        <ele>84</ele>
        <time>2014-10-27T14:16:32Z</time>
      </trkpt>
      <trkpt lat="43.76826" lon="4.25308">
        <ele>83</ele>
        <time>2014-10-27T14:16:38Z</time>
      </trkpt>
      <trkpt lat="43.76853" lon="4.25291">
        <ele>84</ele>
        <time>2014-10-27T14:16:46Z</time>
      </trkpt>
      <trkpt lat="43.76873" lon="4.25274">
        <ele>85</ele>
        <time>2014-10-27T14:16:52Z</time>
      </trkpt>
      <trkpt lat="43.76892" lon="4.25257">
        <ele>85</ele>
        <time>2014-10-27T14:16:58Z</time>
      </trkpt>
      <trkpt lat="43.76908" lon="4.25244">
        <ele>85</ele>
        <time>2014-10-27T14:17:03Z</time>
      </trkpt>
      <trkpt lat="43.76928" lon="4.25232">
        <ele>85</ele>
        <time>2014-10-27T14:17:09Z</time>
      </trkpt>
      <trkpt lat="43.76948" lon="4.25227">
        <ele>88</ele>
        <time>2014-10-27T14:17:15Z</time>
      </trkpt>
      <trkpt lat="43.76971" lon="4.25222">
        <ele>92</ele>
        <time>2014-10-27T14:17:22Z</time>
      </trkpt>
      <trkpt lat="43.76993" lon="4.25216">
        <ele>92</ele>
        <time>2014-10-27T14:17:29Z</time>
      </trkpt>
      <trkpt lat="43.77013" lon="4.25207">
        <ele>92</ele>
        <time>2014-10-27T14:17:35Z</time>
      </trkpt>
      <trkpt lat="43.77034" lon="4.25201">
        <ele>91</ele>
        <time>2014-10-27T14:17:41Z</time>
      </trkpt>
      <trkpt lat="43.7706" lon="4.25193">
        <ele>90</ele>
        <time>2014-10-27T14:17:48Z</time>
      </trkpt>
      <trkpt lat="43.77084" lon="4.25183">
        <ele>90</ele>
        <time>2014-10-27T14:17:54Z</time>
      </trkpt>
      <trkpt lat="43.77106" lon="4.25167">
        <ele>89</ele>
        <time>2014-10-27T14:18:00Z</time>
      </trkpt>
      <trkpt lat="43.77123" lon="4.25144">
        <ele>94</ele>
        <time>2014-10-27T14:18:06Z</time>
      </trkpt>
      <trkpt lat="43.77138" lon="4.25116">
        <ele>99</ele>
        <time>2014-10-27T14:18:12Z</time>
      </trkpt>
      <trkpt lat="43.77149" lon="4.25095">
        <ele>108</ele>
        <time>2014-10-27T14:18:17Z</time>
      </trkpt>
      <trkpt lat="43.77165" lon="4.25067">
        <ele>110</ele>
        <time>2014-10-27T14:18:24Z</time>
      </trkpt>
      <trkpt lat="43.77184" lon="4.25046">
        <ele>106</ele>
        <time>2014-10-27T14:18:30Z</time>
      </trkpt>
      <trkpt lat="43.77197" lon="4.25029">
        <ele>105</ele>
        <time>2014-10-27T14:18:35Z</time>
      </trkpt>
      <trkpt lat="43.77214" lon="4.25007">
        <ele>112</ele>
        <time>2014-10-27T14:18:43Z</time>
      </trkpt>
      <trkpt lat="43.77238" lon="4.24997">
        <ele>109</ele>
        <time>2014-10-27T14:18:51Z</time>
      </trkpt>
      <trkpt lat="43.77257" lon="4.24996">
        <ele>106</ele>
        <time>2014-10-27T14:18:56Z</time>
      </trkpt>
      <trkpt lat="43.77278" lon="4.24984">
        <ele>106</ele>
        <time>2014-10-27T14:19:03Z</time>
      </trkpt>
      <trkpt lat="43.77287" lon="4.24979">
        <ele>102</ele>
        <time>2014-10-27T14:19:06Z</time>
      </trkpt>
      <trkpt lat="43.77306" lon="4.24963">
        <ele>104</ele>
        <time>2014-10-27T14:19:13Z</time>
      </trkpt>
      <trkpt lat="43.77324" lon="4.24957">
        <ele>100</ele>
        <time>2014-10-27T14:19:19Z</time>
      </trkpt>
      <trkpt lat="43.77348" lon="4.24945">
        <ele>102</ele>
        <time>2014-10-27T14:19:28Z</time>
      </trkpt>
      <trkpt lat="43.77355" lon="4.24922">
        <ele>105</ele>
        <time>2014-10-27T14:19:37Z</time>
      </trkpt>
      <trkpt lat="43.77339" lon="4.24904">
        <ele>110</ele>
        <time>2014-10-27T14:19:46Z</time>
      </trkpt>
      <trkpt lat="43.77353" lon="4.24888">
        <ele>110</ele>
        <time>2014-10-27T14:19:53Z</time>
      </trkpt>
      <trkpt lat="43.7737" lon="4.24866">
        <ele>113</ele>
        <time>2014-10-27T14:20:02Z</time>
      </trkpt>
      <trkpt lat="43.77393" lon="4.24855">
        <ele>112</ele>
        <time>2014-10-27T14:20:10Z</time>
      </trkpt>
      <trkpt lat="43.77409" lon="4.24845">
        <ele>109</ele>
        <time>2014-10-27T14:20:16Z</time>
      </trkpt>
      <trkpt lat="43.77416" lon="4.2484">
        <ele>110</ele>
        <time>2014-10-27T14:20:19Z</time>
      </trkpt>
      <trkpt lat="43.77432" lon="4.2484">
        <ele>107</ele>
        <time>2014-10-27T14:20:25Z</time>
      </trkpt>
      <trkpt lat="43.77446" lon="4.2484">
        <ele>106</ele>
        <time>2014-10-27T14:20:31Z</time>
      </trkpt>
      <trkpt lat="43.77472" lon="4.24825">
        <ele>111</ele>
        <time>2014-10-27T14:20:41Z</time>
      </trkpt>
      <trkpt lat="43.77486" lon="4.24822">
        <ele>107</ele>
        <time>2014-10-27T14:20:46Z</time>
      </trkpt>
      <trkpt lat="43.77498" lon="4.24798">
        <ele>103</ele>
        <time>2014-10-27T14:20:54Z</time>
      </trkpt>
      <trkpt lat="43.77509" lon="4.24792">
        <ele>110</ele>
        <time>2014-10-27T14:21:00Z</time>
      </trkpt>
      <trkpt lat="43.77525" lon="4.24792">
        <ele>110</ele>
        <time>2014-10-27T14:21:08Z</time>
      </trkpt>
      <trkpt lat="43.77538" lon="4.2479">
        <ele>108</ele>
        <time>2014-10-27T14:21:13Z</time>
      </trkpt>
      <trkpt lat="43.77538" lon="4.2479">
        <ele>69.2</ele>
        <time>2014-10-27T14:21:19Z</time>
      </trkpt>
      <trkpt lat="43.77538" lon="4.2479">
        <ele>69.2</ele>
        <time>2014-10-27T14:21:39Z</time>
      </trkpt>
      <trkpt lat="43.77556" lon="4.2479">
        <ele>104</ele>
        <time>2014-10-27T14:21:39Z</time>
      </trkpt>
      <trkpt lat="43.77576" lon="4.2479">
        <ele>104</ele>
        <time>2014-10-27T14:21:46Z</time>
      </trkpt>
      <trkpt lat="43.77583" lon="4.24783">
        <ele>113</ele>
        <time>2014-10-27T14:21:51Z</time>
      </trkpt>
      <trkpt lat="43.77603" lon="4.24774">
        <ele>112</ele>
        <time>2014-10-27T14:22:02Z</time>
      </trkpt>
      <trkpt lat="43.7762" lon="4.24751">
        <ele>117</ele>
        <time>2014-10-27T14:22:15Z</time>
      </trkpt>
      <trkpt lat="43.77631" lon="4.24735">
        <ele>115</ele>
        <time>2014-10-27T14:22:26Z</time>
      </trkpt>
      <trkpt lat="43.7763" lon="4.24715">
        <ele>119</ele>
        <time>2014-10-27T14:22:42Z</time>
      </trkpt>
      <trkpt lat="43.7763" lon="4.24682">
        <ele>121</ele>
        <time>2014-10-27T14:22:55Z</time>
      </trkpt>
      <trkpt lat="43.77638" lon="4.24656">
        <ele>122</ele>
        <time>2014-10-27T14:23:04Z</time>
      </trkpt>
      <trkpt lat="43.77644" lon="4.24631">
        <ele>123</ele>
        <time>2014-10-27T14:23:13Z</time>
      </trkpt>
      <trkpt lat="43.77647" lon="4.24613">
        <ele>123</ele>
        <time>2014-10-27T14:23:20Z</time>
      </trkpt>
      <trkpt lat="43.77655" lon="4.2459">
        <ele>126</ele>
        <time>2014-10-27T14:23:30Z</time>
      </trkpt>
      <trkpt lat="43.77652" lon="4.24574">
        <ele>126</ele>
        <time>2014-10-27T14:23:36Z</time>
      </trkpt>
      <trkpt lat="43.77663" lon="4.24562">
        <ele>124</ele>
        <time>2014-10-27T14:23:45Z</time>
      </trkpt>
      <trkpt lat="43.77675" lon="4.2457">
        <ele>123</ele>
        <time>2014-10-27T14:23:52Z</time>
      </trkpt>
      <trkpt lat="43.77681" lon="4.24575">
        <ele>122</ele>
        <time>2014-10-27T14:23:56Z</time>
      </trkpt>
      <trkpt lat="43.77689" lon="4.24584">
        <ele>122</ele>
        <time>2014-10-27T14:24:02Z</time>
      </trkpt>
      <trkpt lat="43.77706" lon="4.24601">
        <ele>123</ele>
        <time>2014-10-27T14:24:13Z</time>
      </trkpt>
      <trkpt lat="43.77725" lon="4.2462">
        <ele>122</ele>
        <time>2014-10-27T14:24:24Z</time>
      </trkpt>
      <trkpt lat="43.7774" lon="4.24638">
        <ele>120</ele>
        <time>2014-10-27T14:24:32Z</time>
      </trkpt>
      <trkpt lat="43.77756" lon="4.24658">
        <ele>120</ele>
        <time>2014-10-27T14:24:41Z</time>
      </trkpt>
      <trkpt lat="43.77769" lon="4.24674">
        <ele>119</ele>
        <time>2014-10-27T14:24:48Z</time>
      </trkpt>
      <trkpt lat="43.77773" lon="4.24682">
        <ele>119</ele>
        <time>2014-10-27T14:24:51Z</time>
      </trkpt>
      <trkpt lat="43.77787" lon="4.24704">
        <ele>118</ele>
        <time>2014-10-27T14:25:00Z</time>
      </trkpt>
      <trkpt lat="43.778" lon="4.24726">
        <ele>119</ele>
        <time>2014-10-27T14:25:09Z</time>
      </trkpt>
      <trkpt lat="43.77804" lon="4.24734">
        <ele>120</ele>
        <time>2014-10-27T14:25:12Z</time>
      </trkpt>
      <trkpt lat="43.77818" lon="4.24757">
        <ele>118</ele>
        <time>2014-10-27T14:25:21Z</time>
      </trkpt>
      <trkpt lat="43.77826" lon="4.24771">
        <ele>120</ele>
        <time>2014-10-27T14:25:27Z</time>
      </trkpt>
      <trkpt lat="43.77836" lon="4.2479">
        <ele>118</ele>
        <time>2014-10-27T14:25:33Z</time>
      </trkpt>
      <trkpt lat="43.77845" lon="4.24807">
        <ele>119</ele>
        <time>2014-10-27T14:25:39Z</time>
      </trkpt>
      <trkpt lat="43.77861" lon="4.24836">
        <ele>119</ele>
        <time>2014-10-27T14:25:47Z</time>
      </trkpt>
      <trkpt lat="43.77875" lon="4.24857">
        <ele>118</ele>
        <time>2014-10-27T14:25:53Z</time>
      </trkpt>
      <trkpt lat="43.77889" lon="4.24883">
        <ele>118</ele>
        <time>2014-10-27T14:26:00Z</time>
      </trkpt>
      <trkpt lat="43.77907" lon="4.24911">
        <ele>118</ele>
        <time>2014-10-27T14:26:06Z</time>
      </trkpt>
      <trkpt lat="43.77918" lon="4.24934">
        <ele>119</ele>
        <time>2014-10-27T14:26:10Z</time>
      </trkpt>
      <trkpt lat="43.7793" lon="4.24966">
        <ele>117</ele>
        <time>2014-10-27T14:26:15Z</time>
      </trkpt>
      <trkpt lat="43.7794" lon="4.24984">
        <ele>116</ele>
        <time>2014-10-27T14:26:18Z</time>
      </trkpt>
      <trkpt lat="43.77959" lon="4.25016">
        <ele>116</ele>
        <time>2014-10-27T14:26:24Z</time>
      </trkpt>
      <trkpt lat="43.77982" lon="4.25044">
        <ele>115</ele>
        <time>2014-10-27T14:26:30Z</time>
      </trkpt>
      <trkpt lat="43.78003" lon="4.25067">
        <ele>114</ele>
        <time>2014-10-27T14:26:35Z</time>
      </trkpt>
      <trkpt lat="43.78012" lon="4.25083">
        <ele>114</ele>
        <time>2014-10-27T14:26:38Z</time>
      </trkpt>
      <trkpt lat="43.78019" lon="4.25098">
        <ele>113</ele>
        <time>2014-10-27T14:26:42Z</time>
      </trkpt>
      <trkpt lat="43.78039" lon="4.25076">
        <ele>116</ele>
        <time>2014-10-27T14:26:51Z</time>
      </trkpt>
      <trkpt lat="43.78053" lon="4.25057">
        <ele>119</ele>
        <time>2014-10-27T14:27:00Z</time>
      </trkpt>
      <trkpt lat="43.78071" lon="4.25045">
        <ele>122</ele>
        <time>2014-10-27T14:27:08Z</time>
      </trkpt>
      <trkpt lat="43.78071" lon="4.25045">
        <ele>122</ele>
        <time>2014-10-27T14:27:13Z</time>
      </trkpt>
      <trkpt lat="43.78071" lon="4.25045">
        <ele>79.4</ele>
        <time>2014-10-27T14:27:13Z</time>
      </trkpt>
      <trkpt lat="43.78071" lon="4.25045">
        <ele>79.4</ele>
        <time>2014-10-27T14:27:22Z</time>
      </trkpt>
      <trkpt lat="43.78076" lon="4.2502">
        <ele>127</ele>
        <time>2014-10-27T14:27:22Z</time>
      </trkpt>
      <trkpt lat="43.78088" lon="4.25011">
        <ele>129</ele>
        <time>2014-10-27T14:27:27Z</time>
      </trkpt>
      <trkpt lat="43.78111" lon="4.25004">
        <ele>130</ele>
        <time>2014-10-27T14:27:38Z</time>
      </trkpt>
      <trkpt lat="43.78122" lon="4.2499">
        <ele>129</ele>
        <time>2014-10-27T14:27:45Z</time>
      </trkpt>
      <trkpt lat="43.78126" lon="4.24978">
        <ele>129</ele>
        <time>2014-10-27T14:27:51Z</time>
      </trkpt>
      <trkpt lat="43.78143" lon="4.24968">
        <ele>132</ele>
        <time>2014-10-27T14:28:03Z</time>
      </trkpt>
      <trkpt lat="43.78167" lon="4.24978">
        <ele>127</ele>
        <time>2014-10-27T14:28:12Z</time>
      </trkpt>
      <trkpt lat="43.78182" lon="4.24987">
        <ele>126</ele>
        <time>2014-10-27T14:28:19Z</time>
      </trkpt>
      <trkpt lat="43.78198" lon="4.25006">
        <ele>128</ele>
        <time>2014-10-27T14:28:26Z</time>
      </trkpt>
      <trkpt lat="43.7821" lon="4.25008">
        <ele>125</ele>
        <time>2014-10-27T14:28:32Z</time>
      </trkpt>
      <trkpt lat="43.78225" lon="4.25016">
        <ele>123</ele>
        <time>2014-10-27T14:28:40Z</time>
      </trkpt>
      <trkpt lat="43.78244" lon="4.25041">
        <ele>121</ele>
        <time>2014-10-27T14:28:48Z</time>
      </trkpt>
      <trkpt lat="43.78273" lon="4.25074">
        <ele>118</ele>
        <time>2014-10-27T14:28:54Z</time>
      </trkpt>
      <trkpt lat="43.78288" lon="4.25081">
        <ele>123</ele>
        <time>2014-10-27T14:28:58Z</time>
      </trkpt>
      <trkpt lat="43.78309" lon="4.25112">
        <ele>118</ele>
        <time>2014-10-27T14:29:04Z</time>
      </trkpt>
      <trkpt lat="43.78333" lon="4.25134">
        <ele>117</ele>
        <time>2014-10-27T14:29:09Z</time>
      </trkpt>
      <trkpt lat="43.78358" lon="4.2517">
        <ele>114</ele>
        <time>2014-10-27T14:29:15Z</time>
      </trkpt>
      <trkpt lat="43.78375" lon="4.25178">
        <ele>114</ele>
        <time>2014-10-27T14:29:22Z</time>
      </trkpt>
      <trkpt lat="43.78398" lon="4.25179">
        <ele>114</ele>
        <time>2014-10-27T14:29:28Z</time>
      </trkpt>
      <trkpt lat="43.78436" lon="4.25183">
        <ele>115</ele>
        <time>2014-10-27T14:29:36Z</time>
      </trkpt>
      <trkpt lat="43.7845" lon="4.25197">
        <ele>114</ele>
        <time>2014-10-27T14:29:43Z</time>
      </trkpt>
      <trkpt lat="43.78458" lon="4.25206">
        <ele>117</ele>
        <time>2014-10-27T14:29:55Z</time>
      </trkpt>
      <trkpt lat="43.78462" lon="4.25224">
        <ele>117</ele>
        <time>2014-10-27T14:30:02Z</time>
      </trkpt>
      <trkpt lat="43.78471" lon="4.25233">
        <ele>118</ele>
        <time>2014-10-27T14:30:07Z</time>
      </trkpt>
      <trkpt lat="43.78511" lon="4.25215">
        <ele>118</ele>
        <time>2014-10-27T14:30:16Z</time>
      </trkpt>
      <trkpt lat="43.78529" lon="4.25201">
        <ele>121</ele>
        <time>2014-10-27T14:30:23Z</time>
      </trkpt>
      <trkpt lat="43.78552" lon="4.25191">
        <ele>120</ele>
        <time>2014-10-27T14:30:33Z</time>
      </trkpt>
      <trkpt lat="43.78556" lon="4.25179">
        <ele>122</ele>
        <time>2014-10-27T14:30:37Z</time>
      </trkpt>
      <trkpt lat="43.78556" lon="4.25179">
        <ele>79.1</ele>
        <time>2014-10-27T14:30:42Z</time>
      </trkpt>
      <trkpt lat="43.78556" lon="4.25179">
        <ele>79.1</ele>
        <time>2014-10-27T14:31:36Z</time>
      </trkpt>
      <trkpt lat="43.78566" lon="4.25154">
        <ele>122</ele>
        <time>2014-10-27T14:31:36Z</time>
      </trkpt>
      <trkpt lat="43.78587" lon="4.25155">
        <ele>122</ele>
        <time>2014-10-27T14:31:44Z</time>
      </trkpt>
      <trkpt lat="43.78594" lon="4.25132">
        <ele>123</ele>
        <time>2014-10-27T14:31:51Z</time>
      </trkpt>
      <trkpt lat="43.7859" lon="4.25112">
        <ele>124</ele>
        <time>2014-10-27T14:31:57Z</time>
      </trkpt>
      <trkpt lat="43.78586" lon="4.25076">
        <ele>127</ele>
        <time>2014-10-27T14:32:10Z</time>
      </trkpt>
      <trkpt lat="43.78603" lon="4.25065">
        <ele>129</ele>
        <time>2014-10-27T14:32:19Z</time>
      </trkpt>
      <trkpt lat="43.78594" lon="4.25037">
        <ele>133</ele>
        <time>2014-10-27T14:32:32Z</time>
      </trkpt>
      <trkpt lat="43.78594" lon="4.25012">
        <ele>134</ele>
        <time>2014-10-27T14:32:41Z</time>
      </trkpt>
      <trkpt lat="43.78598" lon="4.24988">
        <ele>136</ele>
        <time>2014-10-27T14:32:52Z</time>
      </trkpt>
      <trkpt lat="43.78608" lon="4.24958">
        <ele>138</ele>
        <time>2014-10-27T14:33:03Z</time>
      </trkpt>
      <trkpt lat="43.78613" lon="4.24928">
        <ele>142</ele>
        <time>2014-10-27T14:33:15Z</time>
      </trkpt>
      <trkpt lat="43.78623" lon="4.249">
        <ele>144</ele>
        <time>2014-10-27T14:33:27Z</time>
      </trkpt>
      <trkpt lat="43.78641" lon="4.24862">
        <ele>146</ele>
        <time>2014-10-27T14:33:41Z</time>
      </trkpt>
      <trkpt lat="43.78649" lon="4.24845">
        <ele>152</ele>
        <time>2014-10-27T14:33:48Z</time>
      </trkpt>
      <trkpt lat="43.78669" lon="4.2482">
        <ele>153</ele>
        <time>2014-10-27T14:33:59Z</time>
      </trkpt>
      <trkpt lat="43.7869" lon="4.24797">
        <ele>154</ele>
        <time>2014-10-27T14:34:07Z</time>
      </trkpt>
      <trkpt lat="43.78704" lon="4.2479">
        <ele>152</ele>
        <time>2014-10-27T14:34:12Z</time>
      </trkpt>
      <trkpt lat="43.7873" lon="4.24763">
        <ele>148</ele>
        <time>2014-10-27T14:34:21Z</time>
      </trkpt>
      <trkpt lat="43.78735" lon="4.24747">
        <ele>151</ele>
        <time>2014-10-27T14:34:26Z</time>
      </trkpt>
      <trkpt lat="43.78743" lon="4.24701">
        <ele>147</ele>
        <time>2014-10-27T14:34:37Z</time>
      </trkpt>
      <trkpt lat="43.78755" lon="4.24671">
        <ele>148</ele>
        <time>2014-10-27T14:34:44Z</time>
      </trkpt>
      <trkpt lat="43.78768" lon="4.24647">
        <ele>147</ele>
        <time>2014-10-27T14:34:50Z</time>
      </trkpt>
      <trkpt lat="43.78783" lon="4.24629">
        <ele>146</ele>
        <time>2014-10-27T14:34:56Z</time>
      </trkpt>
      <trkpt lat="43.78803" lon="4.24613">
        <ele>145</ele>
        <time>2014-10-27T14:35:03Z</time>
      </trkpt>
      <trkpt lat="43.78812" lon="4.24607">
        <ele>145</ele>
        <time>2014-10-27T14:35:06Z</time>
      </trkpt>
      <trkpt lat="43.78828" lon="4.24586">
        <ele>145</ele>
        <time>2014-10-27T14:35:13Z</time>
      </trkpt>
      <trkpt lat="43.78844" lon="4.2457">
        <ele>144</ele>
        <time>2014-10-27T14:35:20Z</time>
      </trkpt>
      <trkpt lat="43.78867" lon="4.2455">
        <ele>145</ele>
        <time>2014-10-27T14:35:31Z</time>
      </trkpt>
      <trkpt lat="43.78869" lon="4.24526">
        <ele>149</ele>
        <time>2014-10-27T14:35:38Z</time>
      </trkpt>
      <trkpt lat="43.78869" lon="4.24491">
        <ele>151</ele>
        <time>2014-10-27T14:35:47Z</time>
      </trkpt>
      <trkpt lat="43.78859" lon="4.24472">
        <ele>151</ele>
        <time>2014-10-27T14:35:57Z</time>
      </trkpt>
      <trkpt lat="43.78832" lon="4.24483">
        <ele>148</ele>
        <time>2014-10-27T14:36:06Z</time>
      </trkpt>
      <trkpt lat="43.78802" lon="4.24487">
        <ele>149</ele>
        <time>2014-10-27T14:36:15Z</time>
      </trkpt>
      <trkpt lat="43.78786" lon="4.24489">
        <ele>149</ele>
        <time>2014-10-27T14:36:19Z</time>
      </trkpt>
      <trkpt lat="43.78765" lon="4.24493">
        <ele>148</ele>
        <time>2014-10-27T14:36:24Z</time>
      </trkpt>
      <trkpt lat="43.78745" lon="4.245">
        <ele>148</ele>
        <time>2014-10-27T14:36:29Z</time>
      </trkpt>
      <trkpt lat="43.78724" lon="4.24507">
        <ele>148</ele>
        <time>2014-10-27T14:36:35Z</time>
      </trkpt>
      <trkpt lat="43.78699" lon="4.24493">
        <ele>148</ele>
        <time>2014-10-27T14:36:43Z</time>
      </trkpt>
      <trkpt lat="43.78686" lon="4.24473">
        <ele>150</ele>
        <time>2014-10-27T14:36:48Z</time>
      </trkpt>
      <trkpt lat="43.7868" lon="4.24453">
        <ele>150</ele>
        <time>2014-10-27T14:36:54Z</time>
      </trkpt>
      <trkpt lat="43.78693" lon="4.24422">
        <ele>153</ele>
        <time>2014-10-27T14:37:02Z</time>
      </trkpt>
      <trkpt lat="43.78704" lon="4.24392">
        <ele>153</ele>
        <time>2014-10-27T14:37:09Z</time>
      </trkpt>
      <trkpt lat="43.78713" lon="4.24371">
        <ele>150</ele>
        <time>2014-10-27T14:37:15Z</time>
      </trkpt>
      <trkpt lat="43.78726" lon="4.24342">
        <ele>151</ele>
        <time>2014-10-27T14:37:25Z</time>
      </trkpt>
      <trkpt lat="43.78733" lon="4.24322">
        <ele>153</ele>
        <time>2014-10-27T14:37:33Z</time>
      </trkpt>
      <trkpt lat="43.78749" lon="4.24286">
        <ele>154</ele>
        <time>2014-10-27T14:37:45Z</time>
      </trkpt>
      <trkpt lat="43.78756" lon="4.24243">
        <ele>154</ele>
        <time>2014-10-27T14:37:53Z</time>
      </trkpt>
      <trkpt lat="43.78753" lon="4.24212">
        <ele>153</ele>
        <time>2014-10-27T14:37:59Z</time>
      </trkpt>
      <trkpt lat="43.78735" lon="4.24187">
        <ele>156</ele>
        <time>2014-10-27T14:38:06Z</time>
      </trkpt>
      <trkpt lat="43.78709" lon="4.24169">
        <ele>157</ele>
        <time>2014-10-27T14:38:16Z</time>
      </trkpt>
      <trkpt lat="43.78696" lon="4.2415">
        <ele>154</ele>
        <time>2014-10-27T14:38:22Z</time>
      </trkpt>
      <trkpt lat="43.78709" lon="4.24124">
        <ele>158</ele>
        <time>2014-10-27T14:38:29Z</time>
      </trkpt>
      <trkpt lat="43.78723" lon="4.24099">
        <ele>155</ele>
        <time>2014-10-27T14:38:39Z</time>
      </trkpt>
      <trkpt lat="43.78726" lon="4.24077">
        <ele>161</ele>
        <time>2014-10-27T14:38:47Z</time>
      </trkpt>
      <trkpt lat="43.78721" lon="4.24066">
        <ele>161</ele>
        <time>2014-10-27T14:38:54Z</time>
      </trkpt>
      <trkpt lat="43.78692" lon="4.24037">
        <ele>156</ele>
        <time>2014-10-27T14:39:06Z</time>
      </trkpt>
      <trkpt lat="43.78684" lon="4.24016">
        <ele>160</ele>
        <time>2014-10-27T14:39:11Z</time>
      </trkpt>
      <trkpt lat="43.78676" lon="4.23986">
        <ele>157</ele>
        <time>2014-10-27T14:39:19Z</time>
      </trkpt>
      <trkpt lat="43.78666" lon="4.23982">
        <ele>156</ele>
        <time>2014-10-27T14:39:24Z</time>
      </trkpt>
      <trkpt lat="43.78648" lon="4.23996">
        <ele>149</ele>
        <time>2014-10-27T14:39:30Z</time>
      </trkpt>
      <trkpt lat="43.78619" lon="4.24006">
        <ele>143</ele>
        <time>2014-10-27T14:39:36Z</time>
      </trkpt>
      <trkpt lat="43.78597" lon="4.24025">
        <ele>144</ele>
        <time>2014-10-27T14:39:42Z</time>
      </trkpt>
      <trkpt lat="43.78575" lon="4.24058">
        <ele>145</ele>
        <time>2014-10-27T14:39:47Z</time>
      </trkpt>
      <trkpt lat="43.7855" lon="4.24085">
        <ele>145</ele>
        <time>2014-10-27T14:39:53Z</time>
      </trkpt>
      <trkpt lat="43.78526" lon="4.24082">
        <ele>146</ele>
        <time>2014-10-27T14:39:58Z</time>
      </trkpt>
      <trkpt lat="43.78499" lon="4.24084">
        <ele>143</ele>
        <time>2014-10-27T14:40:03Z</time>
      </trkpt>
      <trkpt lat="43.78477" lon="4.24061">
        <ele>141</ele>
        <time>2014-10-27T14:40:10Z</time>
      </trkpt>
      <trkpt lat="43.78495" lon="4.24039">
        <ele>139</ele>
        <time>2014-10-27T14:40:16Z</time>
      </trkpt>
      <trkpt lat="43.78466" lon="4.24042">
        <ele>135</ele>
        <time>2014-10-27T14:40:23Z</time>
      </trkpt>
      <trkpt lat="43.78446" lon="4.24075">
        <ele>132</ele>
        <time>2014-10-27T14:40:29Z</time>
      </trkpt>
      <trkpt lat="43.78439" lon="4.24064">
        <ele>130</ele>
        <time>2014-10-27T14:40:34Z</time>
      </trkpt>
      <trkpt lat="43.7844" lon="4.24033">
        <ele>133</ele>
        <time>2014-10-27T14:40:43Z</time>
      </trkpt>
      <trkpt lat="43.78434" lon="4.24014">
        <ele>130</ele>
        <time>2014-10-27T14:40:50Z</time>
      </trkpt>
      <trkpt lat="43.78403" lon="4.24035">
        <ele>120</ele>
        <time>2014-10-27T14:41:03Z</time>
      </trkpt>
      <trkpt lat="43.7838" lon="4.24011">
        <ele>115</ele>
        <time>2014-10-27T14:41:12Z</time>
      </trkpt>
      <trkpt lat="43.78364" lon="4.23997">
        <ele>112</ele>
        <time>2014-10-27T14:41:23Z</time>
      </trkpt>
      <trkpt lat="43.78343" lon="4.2404">
        <ele>111</ele>
        <time>2014-10-27T14:41:34Z</time>
      </trkpt>
      <trkpt lat="43.78332" lon="4.24062">
        <ele>110</ele>
        <time>2014-10-27T14:41:39Z</time>
      </trkpt>
      <trkpt lat="43.78323" lon="4.24085">
        <ele>110</ele>
        <time>2014-10-27T14:41:44Z</time>
      </trkpt>
      <trkpt lat="43.78316" lon="4.24106">
        <ele>111</ele>
        <time>2014-10-27T14:41:50Z</time>
      </trkpt>
      <trkpt lat="43.78303" lon="4.24126">
        <ele>110</ele>
        <time>2014-10-27T14:41:56Z</time>
      </trkpt>
      <trkpt lat="43.78294" lon="4.24151">
        <ele>109</ele>
        <time>2014-10-27T14:42:01Z</time>
      </trkpt>
      <trkpt lat="43.78288" lon="4.24186">
        <ele>109</ele>
        <time>2014-10-27T14:42:08Z</time>
      </trkpt>
      <trkpt lat="43.78275" lon="4.24218">
        <ele>109</ele>
        <time>2014-10-27T14:42:15Z</time>
      </trkpt>
      <trkpt lat="43.7826" lon="4.24244">
        <ele>109</ele>
        <time>2014-10-27T14:42:21Z</time>
      </trkpt>
      <trkpt lat="43.7825" lon="4.24268">
        <ele>110</ele>
        <time>2014-10-27T14:42:26Z</time>
      </trkpt>
      <trkpt lat="43.78247" lon="4.24291">
        <ele>109</ele>
        <time>2014-10-27T14:42:31Z</time>
      </trkpt>
      <trkpt lat="43.78239" lon="4.24322">
        <ele>110</ele>
        <time>2014-10-27T14:42:38Z</time>
      </trkpt>
      <trkpt lat="43.78228" lon="4.24347">
        <ele>111</ele>
        <time>2014-10-27T14:42:44Z</time>
      </trkpt>
      <trkpt lat="43.78214" lon="4.24377">
        <ele>113</ele>
        <time>2014-10-27T14:42:52Z</time>
      </trkpt>
      <trkpt lat="43.782" lon="4.24392">
        <ele>113</ele>
        <time>2014-10-27T14:42:58Z</time>
      </trkpt>
      <trkpt lat="43.78182" lon="4.24393">
        <ele>115</ele>
        <time>2014-10-27T14:43:04Z</time>
      </trkpt>
      <trkpt lat="43.78161" lon="4.24377">
        <ele>112</ele>
        <time>2014-10-27T14:43:10Z</time>
      </trkpt>
      <trkpt lat="43.78137" lon="4.24365">
        <ele>113</ele>
        <time>2014-10-27T14:43:16Z</time>
      </trkpt>
      <trkpt lat="43.7812" lon="4.24355">
        <ele>115</ele>
        <time>2014-10-27T14:43:21Z</time>
      </trkpt>
      <trkpt lat="43.78094" lon="4.24337">
        <ele>117</ele>
        <time>2014-10-27T14:43:28Z</time>
      </trkpt>
      <trkpt lat="43.78075" lon="4.24319">
        <ele>114</ele>
        <time>2014-10-27T14:43:33Z</time>
      </trkpt>
      <trkpt lat="43.78051" lon="4.24296">
        <ele>113</ele>
        <time>2014-10-27T14:43:39Z</time>
      </trkpt>
      <trkpt lat="43.78038" lon="4.24286">
        <ele>111</ele>
        <time>2014-10-27T14:43:42Z</time>
      </trkpt>
      <trkpt lat="43.78013" lon="4.24259">
        <ele>111</ele>
        <time>2014-10-27T14:43:48Z</time>
      </trkpt>
      <trkpt lat="43.77985" lon="4.24236">
        <ele>110</ele>
        <time>2014-10-27T14:43:54Z</time>
      </trkpt>
      <trkpt lat="43.77958" lon="4.24217">
        <ele>108</ele>
        <time>2014-10-27T14:43:59Z</time>
      </trkpt>
      <trkpt lat="43.77923" lon="4.24195">
        <ele>108</ele>
        <time>2014-10-27T14:44:05Z</time>
      </trkpt>
      <trkpt lat="43.77888" lon="4.2417">
        <ele>108</ele>
        <time>2014-10-27T14:44:11Z</time>
      </trkpt>
      <trkpt lat="43.7787" lon="4.24154">
        <ele>108</ele>
        <time>2014-10-27T14:44:14Z</time>
      </trkpt>
      <trkpt lat="43.77853" lon="4.24139">
        <ele>108</ele>
        <time>2014-10-27T14:44:17Z</time>
      </trkpt>
      <trkpt lat="43.77819" lon="4.2411">
        <ele>107</ele>
        <time>2014-10-27T14:44:23Z</time>
      </trkpt>
      <trkpt lat="43.77783" lon="4.24082">
        <ele>107</ele>
        <time>2014-10-27T14:44:29Z</time>
      </trkpt>
      <trkpt lat="43.77753" lon="4.24056">
        <ele>107</ele>
        <time>2014-10-27T14:44:35Z</time>
      </trkpt>
      <trkpt lat="43.77733" lon="4.24025">
        <ele>105</ele>
        <time>2014-10-27T14:44:41Z</time>
      </trkpt>
      <trkpt lat="43.77704" lon="4.24003">
        <ele>105</ele>
        <time>2014-10-27T14:44:47Z</time>
      </trkpt>
      <trkpt lat="43.77681" lon="4.23984">
        <ele>106</ele>
        <time>2014-10-27T14:44:52Z</time>
      </trkpt>
      <trkpt lat="43.77648" lon="4.23972">
        <ele>108</ele>
        <time>2014-10-27T14:44:59Z</time>
      </trkpt>
      <trkpt lat="43.7762" lon="4.23954">
        <ele>106</ele>
        <time>2014-10-27T14:45:06Z</time>
      </trkpt>
      <trkpt lat="43.77599" lon="4.23952">
        <ele>107</ele>
        <time>2014-10-27T14:45:12Z</time>
      </trkpt>
      <trkpt lat="43.77579" lon="4.23931">
        <ele>104</ele>
        <time>2014-10-27T14:45:17Z</time>
      </trkpt>
      <trkpt lat="43.77564" lon="4.23923">
        <ele>103</ele>
        <time>2014-10-27T14:45:20Z</time>
      </trkpt>
      <trkpt lat="43.77551" lon="4.23912">
        <ele>102</ele>
        <time>2014-10-27T14:45:23Z</time>
      </trkpt>
      <trkpt lat="43.77518" lon="4.23883">
        <ele>101</ele>
        <time>2014-10-27T14:45:30Z</time>
      </trkpt>
      <trkpt lat="43.77486" lon="4.2387">
        <ele>103</ele>
        <time>2014-10-27T14:45:35Z</time>
      </trkpt>
      <trkpt lat="43.77456" lon="4.23856">
        <ele>102</ele>
        <time>2014-10-27T14:45:41Z</time>
      </trkpt>
      <trkpt lat="43.77428" lon="4.23848">
        <ele>99</ele>
        <time>2014-10-27T14:45:49Z</time>
      </trkpt>
      <trkpt lat="43.77405" lon="4.23834">
        <ele>99</ele>
        <time>2014-10-27T14:45:55Z</time>
      </trkpt>
      <trkpt lat="43.7738" lon="4.23815">
        <ele>102</ele>
        <time>2014-10-27T14:46:02Z</time>
      </trkpt>
      <trkpt lat="43.77357" lon="4.2381">
        <ele>103</ele>
        <time>2014-10-27T14:46:08Z</time>
      </trkpt>
      <trkpt lat="43.77348" lon="4.23793">
        <ele>105</ele>
        <time>2014-10-27T14:46:16Z</time>
      </trkpt>
      <trkpt lat="43.77333" lon="4.23801">
        <ele>103</ele>
        <time>2014-10-27T14:46:30Z</time>
      </trkpt>
      <trkpt lat="43.77303" lon="4.23828">
        <ele>105</ele>
        <time>2014-10-27T14:46:41Z</time>
      </trkpt>
      <trkpt lat="43.77284" lon="4.23844">
        <ele>108</ele>
        <time>2014-10-27T14:46:47Z</time>
      </trkpt>
      <trkpt lat="43.77261" lon="4.23858">
        <ele>106</ele>
        <time>2014-10-27T14:46:53Z</time>
      </trkpt>
      <trkpt lat="43.77236" lon="4.23872">
        <ele>102</ele>
        <time>2014-10-27T14:47:00Z</time>
      </trkpt>
      <trkpt lat="43.77213" lon="4.2388">
        <ele>113</ele>
        <time>2014-10-27T14:47:08Z</time>
      </trkpt>
      <trkpt lat="43.77198" lon="4.23882">
        <ele>107</ele>
        <time>2014-10-27T14:47:13Z</time>
      </trkpt>
      <trkpt lat="43.77173" lon="4.23892">
        <ele>106</ele>
        <time>2014-10-27T14:47:21Z</time>
      </trkpt>
      <trkpt lat="43.77154" lon="4.23902">
        <ele>108</ele>
        <time>2014-10-27T14:47:29Z</time>
      </trkpt>
      <trkpt lat="43.77133" lon="4.23925">
        <ele>110</ele>
        <time>2014-10-27T14:47:37Z</time>
      </trkpt>
      <trkpt lat="43.77117" lon="4.23951">
        <ele>111</ele>
        <time>2014-10-27T14:47:45Z</time>
      </trkpt>
      <trkpt lat="43.7711" lon="4.23961">
        <ele>111</ele>
        <time>2014-10-27T14:47:48Z</time>
      </trkpt>
      <trkpt lat="43.77097" lon="4.23983">
        <ele>113</ele>
        <time>2014-10-27T14:47:54Z</time>
      </trkpt>
      <trkpt lat="43.77078" lon="4.2401">
        <ele>112</ele>
        <time>2014-10-27T14:48:01Z</time>
      </trkpt>
      <trkpt lat="43.77065" lon="4.24035">
        <ele>115</ele>
        <time>2014-10-27T14:48:07Z</time>
      </trkpt>
      <trkpt lat="43.77048" lon="4.24073">
        <ele>117</ele>
        <time>2014-10-27T14:48:18Z</time>
      </trkpt>
      <trkpt lat="43.77037" lon="4.24091">
        <ele>115</ele>
        <time>2014-10-27T14:48:27Z</time>
      </trkpt>
      <trkpt lat="43.76895" lon="4.24061">
        <ele>105</ele>
        <time>2014-10-27T14:48:43Z</time>
      </trkpt>
      <trkpt lat="43.76847" lon="4.24039">
        <ele>101</ele>
        <time>2014-10-27T14:48:49Z</time>
      </trkpt>
      <trkpt lat="43.76826" lon="4.24032">
        <ele>102</ele>
        <time>2014-10-27T14:48:52Z</time>
      </trkpt>
      <trkpt lat="43.76808" lon="4.24025">
        <ele>103</ele>
        <time>2014-10-27T14:48:55Z</time>
      </trkpt>
      <trkpt lat="43.7679" lon="4.24018">
        <ele>104</ele>
        <time>2014-10-27T14:48:58Z</time>
      </trkpt>
      <trkpt lat="43.76742" lon="4.23987">
        <ele>105</ele>
        <time>2014-10-27T14:49:05Z</time>
      </trkpt>
      <trkpt lat="43.76703" lon="4.23969">
        <ele>105</ele>
        <time>2014-10-27T14:49:10Z</time>
      </trkpt>
      <trkpt lat="43.7667" lon="4.23959">
        <ele>106</ele>
        <time>2014-10-27T14:49:15Z</time>
      </trkpt>
      <trkpt lat="43.76637" lon="4.23952">
        <ele>107</ele>
        <time>2014-10-27T14:49:21Z</time>
      </trkpt>
      <trkpt lat="43.7661" lon="4.23947">
        <ele>108</ele>
        <time>2014-10-27T14:49:26Z</time>
      </trkpt>
      <trkpt lat="43.76579" lon="4.23944">
        <ele>110</ele>
        <time>2014-10-27T14:49:33Z</time>
      </trkpt>
      <trkpt lat="43.76553" lon="4.23943">
        <ele>110</ele>
        <time>2014-10-27T14:49:40Z</time>
      </trkpt>
      <trkpt lat="43.76537" lon="4.23944">
        <ele>113</ele>
        <time>2014-10-27T14:49:47Z</time>
      </trkpt>
      <trkpt lat="43.76519" lon="4.23944">
        <ele>113</ele>
        <time>2014-10-27T14:50:00Z</time>
      </trkpt>
      <trkpt lat="43.76491" lon="4.23934">
        <ele>114</ele>
        <time>2014-10-27T14:50:10Z</time>
      </trkpt>
      <trkpt lat="43.76465" lon="4.23921">
        <ele>114</ele>
        <time>2014-10-27T14:50:18Z</time>
      </trkpt>
      <trkpt lat="43.76445" lon="4.2391">
        <ele>114</ele>
        <time>2014-10-27T14:50:23Z</time>
      </trkpt>
      <trkpt lat="43.76432" lon="4.23903">
        <ele>114</ele>
        <time>2014-10-27T14:50:26Z</time>
      </trkpt>
      <trkpt lat="43.76416" lon="4.23895">
        <ele>113</ele>
        <time>2014-10-27T14:50:30Z</time>
      </trkpt>
      <trkpt lat="43.76398" lon="4.23884">
        <ele>114</ele>
        <time>2014-10-27T14:50:35Z</time>
      </trkpt>
      <trkpt lat="43.76387" lon="4.2388">
        <ele>113</ele>
        <time>2014-10-27T14:50:38Z</time>
      </trkpt>
      <trkpt lat="43.76375" lon="4.23875">
        <ele>113</ele>
        <time>2014-10-27T14:50:41Z</time>
      </trkpt>
      <trkpt lat="43.76352" lon="4.23868">
        <ele>113</ele>
        <time>2014-10-27T14:50:47Z</time>
      </trkpt>
      <trkpt lat="43.7634" lon="4.23865">
        <ele>113</ele>
        <time>2014-10-27T14:50:50Z</time>
      </trkpt>
      <trkpt lat="43.76328" lon="4.23863">
        <ele>113</ele>
        <time>2014-10-27T14:50:53Z</time>
      </trkpt>
      <trkpt lat="43.76309" lon="4.23857">
        <ele>114</ele>
        <time>2014-10-27T14:50:58Z</time>
      </trkpt>
      <trkpt lat="43.76286" lon="4.23848">
        <ele>114</ele>
        <time>2014-10-27T14:51:04Z</time>
      </trkpt>
      <trkpt lat="43.76271" lon="4.23841">
        <ele>114</ele>
        <time>2014-10-27T14:51:08Z</time>
      </trkpt>
      <trkpt lat="43.76248" lon="4.23829">
        <ele>114</ele>
        <time>2014-10-27T14:51:14Z</time>
      </trkpt>
      <trkpt lat="43.76226" lon="4.23812">
        <ele>113</ele>
        <time>2014-10-27T14:51:20Z</time>
      </trkpt>
      <trkpt lat="43.76204" lon="4.23791">
        <ele>112</ele>
        <time>2014-10-27T14:51:26Z</time>
      </trkpt>
      <trkpt lat="43.76186" lon="4.23772">
        <ele>112</ele>
        <time>2014-10-27T14:51:31Z</time>
      </trkpt>
      <trkpt lat="43.76167" lon="4.2375">
        <ele>111</ele>
        <time>2014-10-27T14:51:37Z</time>
      </trkpt>
      <trkpt lat="43.76143" lon="4.23727">
        <ele>108</ele>
        <time>2014-10-27T14:51:43Z</time>
      </trkpt>
      <trkpt lat="43.76126" lon="4.2371">
        <ele>111</ele>
        <time>2014-10-27T14:51:48Z</time>
      </trkpt>
      <trkpt lat="43.76105" lon="4.23679">
        <ele>112</ele>
        <time>2014-10-27T14:51:54Z</time>
      </trkpt>
      <trkpt lat="43.76093" lon="4.23638">
        <ele>112</ele>
        <time>2014-10-27T14:52:00Z</time>
      </trkpt>
      <trkpt lat="43.76086" lon="4.23615">
        <ele>111</ele>
        <time>2014-10-27T14:52:04Z</time>
      </trkpt>
      <trkpt lat="43.76079" lon="4.23594">
        <ele>110</ele>
        <time>2014-10-27T14:52:08Z</time>
      </trkpt>
      <trkpt lat="43.76064" lon="4.23575">
        <ele>111</ele>
        <time>2014-10-27T14:52:13Z</time>
      </trkpt>
      <trkpt lat="43.76059" lon="4.23547">
        <ele>106</ele>
        <time>2014-10-27T14:52:19Z</time>
      </trkpt>
      <trkpt lat="43.7605" lon="4.23533">
        <ele>104</ele>
        <time>2014-10-27T14:52:25Z</time>
      </trkpt>
      <trkpt lat="43.76049" lon="4.2351">
        <ele>105</ele>
        <time>2014-10-27T14:52:33Z</time>
      </trkpt>
      <trkpt lat="43.76038" lon="4.23495">
        <ele>107</ele>
        <time>2014-10-27T14:52:41Z</time>
      </trkpt>
      <trkpt lat="43.76029" lon="4.23488">
        <ele>107</ele>
        <time>2014-10-27T14:52:48Z</time>
      </trkpt>
      <trkpt lat="43.76029" lon="4.23488">
        <ele>63.4</ele>
        <time>2014-10-27T14:52:55Z</time>
      </trkpt>
      <trkpt lat="43.76029" lon="4.23488">
        <ele>63.4</ele>
        <time>2014-10-27T14:53:04Z</time>
      </trkpt>
      <trkpt lat="43.76027" lon="4.23487">
        <ele>110</ele>
        <time>2014-10-27T14:53:04Z</time>
      </trkpt>
      <trkpt lat="43.76008" lon="4.2348">
        <ele>111</ele>
        <time>2014-10-27T14:53:26Z</time>
      </trkpt>
      <trkpt lat="43.75985" lon="4.23478">
        <ele>110</ele>
        <time>2014-10-27T14:53:34Z</time>
      </trkpt>
      <trkpt lat="43.75969" lon="4.23452">
        <ele>113</ele>
        <time>2014-10-27T14:53:45Z</time>
      </trkpt>
      <trkpt lat="43.75963" lon="4.23433">
        <ele>114</ele>
        <time>2014-10-27T14:53:53Z</time>
      </trkpt>
      <trkpt lat="43.75952" lon="4.234">
        <ele>116</ele>
        <time>2014-10-27T14:54:04Z</time>
      </trkpt>
      <trkpt lat="43.75954" lon="4.23372">
        <ele>119</ele>
        <time>2014-10-27T14:54:15Z</time>
      </trkpt>
      <trkpt lat="43.75951" lon="4.2335">
        <ele>116</ele>
        <time>2014-10-27T14:54:21Z</time>
      </trkpt>
      <trkpt lat="43.75934" lon="4.23325">
        <ele>115</ele>
        <time>2014-10-27T14:54:29Z</time>
      </trkpt>
      <trkpt lat="43.75911" lon="4.23298">
        <ele>115</ele>
        <time>2014-10-27T14:54:35Z</time>
      </trkpt>
      <trkpt lat="43.75898" lon="4.23272">
        <ele>116</ele>
        <time>2014-10-27T14:54:40Z</time>
      </trkpt>
      <trkpt lat="43.75887" lon="4.23261">
        <ele>113</ele>
        <time>2014-10-27T14:54:46Z</time>
      </trkpt>
      <trkpt lat="43.7588" lon="4.23249">
        <ele>110</ele>
        <time>2014-10-27T14:54:52Z</time>
      </trkpt>
      <trkpt lat="43.75873" lon="4.23237">
        <ele>109</ele>
        <time>2014-10-27T14:55:01Z</time>
      </trkpt>
      <trkpt lat="43.75827" lon="4.23155">
        <ele>103</ele>
        <time>2014-10-27T14:55:16Z</time>
      </trkpt>
      <trkpt lat="43.75816" lon="4.23137">
        <ele>102</ele>
        <time>2014-10-27T14:55:19Z</time>
      </trkpt>
      <trkpt lat="43.75792" lon="4.23108">
        <ele>100</ele>
        <time>2014-10-27T14:55:25Z</time>
      </trkpt>
      <trkpt lat="43.75767" lon="4.23091">
        <ele>101</ele>
        <time>2014-10-27T14:55:31Z</time>
      </trkpt>
      <trkpt lat="43.75739" lon="4.23087">
        <ele>101</ele>
        <time>2014-10-27T14:55:36Z</time>
      </trkpt>
      <trkpt lat="43.75718" lon="4.23087">
        <ele>99</ele>
        <time>2014-10-27T14:55:41Z</time>
      </trkpt>
      <trkpt lat="43.75687" lon="4.23066">
        <ele>97</ele>
        <time>2014-10-27T14:55:47Z</time>
      </trkpt>
      <trkpt lat="43.7567" lon="4.23056">
        <ele>96</ele>
        <time>2014-10-27T14:55:51Z</time>
      </trkpt>
      <trkpt lat="43.75658" lon="4.23047">
        <ele>95</ele>
        <time>2014-10-27T14:55:54Z</time>
      </trkpt>
      <trkpt lat="43.75636" lon="4.23028">
        <ele>95</ele>
        <time>2014-10-27T14:55:59Z</time>
      </trkpt>
      <trkpt lat="43.75634" lon="4.23001">
        <ele>95</ele>
        <time>2014-10-27T14:56:04Z</time>
      </trkpt>
      <trkpt lat="43.75619" lon="4.22962">
        <ele>93</ele>
        <time>2014-10-27T14:56:10Z</time>
      </trkpt>
      <trkpt lat="43.7561" lon="4.22943">
        <ele>92</ele>
        <time>2014-10-27T14:56:13Z</time>
      </trkpt>
      <trkpt lat="43.75593" lon="4.22911">
        <ele>92</ele>
        <time>2014-10-27T14:56:18Z</time>
      </trkpt>
      <trkpt lat="43.75583" lon="4.22893">
        <ele>91</ele>
        <time>2014-10-27T14:56:21Z</time>
      </trkpt>
      <trkpt lat="43.75558" lon="4.22863">
        <ele>93</ele>
        <time>2014-10-27T14:56:28Z</time>
      </trkpt>
      <trkpt lat="43.7553" lon="4.22849">
        <ele>93</ele>
        <time>2014-10-27T14:56:34Z</time>
      </trkpt>
      <trkpt lat="43.75503" lon="4.22838">
        <ele>96</ele>
        <time>2014-10-27T14:56:39Z</time>
      </trkpt>
      <trkpt lat="43.75475" lon="4.22823">
        <ele>94</ele>
        <time>2014-10-27T14:56:45Z</time>
      </trkpt>
      <trkpt lat="43.75454" lon="4.22818">
        <ele>96</ele>
        <time>2014-10-27T14:56:50Z</time>
      </trkpt>
      <trkpt lat="43.75426" lon="4.2281">
        <ele>96</ele>
        <time>2014-10-27T14:56:56Z</time>
      </trkpt>
      <trkpt lat="43.75405" lon="4.22802">
        <ele>94</ele>
        <time>2014-10-27T14:57:00Z</time>
      </trkpt>
      <trkpt lat="43.75382" lon="4.22791">
        <ele>94</ele>
        <time>2014-10-27T14:57:05Z</time>
      </trkpt>
      <trkpt lat="43.75365" lon="4.22785">
        <ele>94</ele>
        <time>2014-10-27T14:57:12Z</time>
      </trkpt>
      <trkpt lat="43.75351" lon="4.22778">
        <ele>94</ele>
        <time>2014-10-27T14:57:17Z</time>
      </trkpt>
      <trkpt lat="43.75329" lon="4.22755">
        <ele>93</ele>
        <time>2014-10-27T14:57:24Z</time>
      </trkpt>
      <trkpt lat="43.75308" lon="4.22738">
        <ele>92</ele>
        <time>2014-10-27T14:57:30Z</time>
      </trkpt>
      <trkpt lat="43.75278" lon="4.22716">
        <ele>91</ele>
        <time>2014-10-27T14:57:37Z</time>
      </trkpt>
      <trkpt lat="43.75256" lon="4.22696">
        <ele>90</ele>
        <time>2014-10-27T14:57:43Z</time>
      </trkpt>
      <trkpt lat="43.75252" lon="4.22663">
        <ele>91</ele>
        <time>2014-10-27T14:57:50Z</time>
      </trkpt>
      <trkpt lat="43.75254" lon="4.22634">
        <ele>93</ele>
        <time>2014-10-27T14:57:56Z</time>
      </trkpt>
      <trkpt lat="43.75264" lon="4.22623">
        <ele>96</ele>
        <time>2014-10-27T14:58:02Z</time>
      </trkpt>
      <trkpt lat="43.75284" lon="4.22622">
        <ele>98</ele>
        <time>2014-10-27T14:58:08Z</time>
      </trkpt>
      <trkpt lat="43.75309" lon="4.22626">
        <ele>102</ele>
        <time>2014-10-27T14:58:15Z</time>
      </trkpt>
      <trkpt lat="43.75342" lon="4.22635">
        <ele>101</ele>
        <time>2014-10-27T14:58:23Z</time>
      </trkpt>
      <trkpt lat="43.75363" lon="4.2264">
        <ele>98</ele>
        <time>2014-10-27T14:58:29Z</time>
      </trkpt>
      <trkpt lat="43.75389" lon="4.22642">
        <ele>97</ele>
        <time>2014-10-27T14:58:37Z</time>
      </trkpt>
      <trkpt lat="43.75412" lon="4.22642">
        <ele>98</ele>
        <time>2014-10-27T14:58:44Z</time>
      </trkpt>
      <trkpt lat="43.75428" lon="4.22644">
        <ele>98</ele>
        <time>2014-10-27T14:58:49Z</time>
      </trkpt>
      <trkpt lat="43.75441" lon="4.22645">
        <ele>101</ele>
        <time>2014-10-27T14:58:53Z</time>
      </trkpt>
      <trkpt lat="43.75463" lon="4.22646">
        <ele>103</ele>
        <time>2014-10-27T14:59:00Z</time>
      </trkpt>
      <trkpt lat="43.75475" lon="4.22648">
        <ele>103</ele>
        <time>2014-10-27T14:59:04Z</time>
      </trkpt>
      <trkpt lat="43.75492" lon="4.22652">
        <ele>105</ele>
        <time>2014-10-27T14:59:12Z</time>
      </trkpt>
      <trkpt lat="43.75507" lon="4.22663">
        <ele>104</ele>
        <time>2014-10-27T14:59:18Z</time>
      </trkpt>
      <trkpt lat="43.75522" lon="4.22676">
        <ele>104</ele>
        <time>2014-10-27T14:59:25Z</time>
      </trkpt>
      <trkpt lat="43.7554" lon="4.22687">
        <ele>104</ele>
        <time>2014-10-27T14:59:32Z</time>
      </trkpt>
      <trkpt lat="43.75562" lon="4.22695">
        <ele>100</ele>
        <time>2014-10-27T14:59:40Z</time>
      </trkpt>
      <trkpt lat="43.75585" lon="4.227">
        <ele>101</ele>
        <time>2014-10-27T14:59:47Z</time>
      </trkpt>
      <trkpt lat="43.75601" lon="4.22709">
        <ele>100</ele>
        <time>2014-10-27T14:59:53Z</time>
      </trkpt>
      <trkpt lat="43.75622" lon="4.22721">
        <ele>101</ele>
        <time>2014-10-27T15:00:01Z</time>
      </trkpt>
      <trkpt lat="43.75644" lon="4.22727">
        <ele>103</ele>
        <time>2014-10-27T15:00:09Z</time>
      </trkpt>
      <trkpt lat="43.75669" lon="4.22732">
        <ele>103</ele>
        <time>2014-10-27T15:00:18Z</time>
      </trkpt>
      <trkpt lat="43.75691" lon="4.2273">
        <ele>103</ele>
        <time>2014-10-27T15:00:26Z</time>
      </trkpt>
      <trkpt lat="43.75711" lon="4.22732">
        <ele>103</ele>
        <time>2014-10-27T15:00:33Z</time>
      </trkpt>
      <trkpt lat="43.75735" lon="4.22728">
        <ele>104</ele>
        <time>2014-10-27T15:00:41Z</time>
      </trkpt>
      <trkpt lat="43.75753" lon="4.22734">
        <ele>104</ele>
        <time>2014-10-27T15:00:47Z</time>
      </trkpt>
      <trkpt lat="43.75771" lon="4.22735">
        <ele>106</ele>
        <time>2014-10-27T15:00:53Z</time>
      </trkpt>
      <trkpt lat="43.75796" lon="4.22734">
        <ele>107</ele>
        <time>2014-10-27T15:01:01Z</time>
      </trkpt>
      <trkpt lat="43.75816" lon="4.22733">
        <ele>106</ele>
        <time>2014-10-27T15:01:07Z</time>
      </trkpt>
      <trkpt lat="43.7584" lon="4.22732">
        <ele>103</ele>
        <time>2014-10-27T15:01:14Z</time>
      </trkpt>
      <trkpt lat="43.75851" lon="4.22733">
        <ele>104</ele>
        <time>2014-10-27T15:01:17Z</time>
      </trkpt>
      <trkpt lat="43.75865" lon="4.22736">
        <ele>105</ele>
        <time>2014-10-27T15:01:21Z</time>
      </trkpt>
      <trkpt lat="43.75884" lon="4.22746">
        <ele>108</ele>
        <time>2014-10-27T15:01:27Z</time>
      </trkpt>
      <trkpt lat="43.75906" lon="4.22758">
        <ele>109</ele>
        <time>2014-10-27T15:01:34Z</time>
      </trkpt>
      <trkpt lat="43.75926" lon="4.22764">
        <ele>110</ele>
        <time>2014-10-27T15:01:41Z</time>
      </trkpt>
      <trkpt lat="43.7595" lon="4.22769">
        <ele>111</ele>
        <time>2014-10-27T15:01:49Z</time>
      </trkpt>
      <trkpt lat="43.7597" lon="4.22778">
        <ele>113</ele>
        <time>2014-10-27T15:01:56Z</time>
      </trkpt>
      <trkpt lat="43.75992" lon="4.22792">
        <ele>113</ele>
        <time>2014-10-27T15:02:04Z</time>
      </trkpt>
      <trkpt lat="43.76018" lon="4.22804">
        <ele>114</ele>
        <time>2014-10-27T15:02:13Z</time>
      </trkpt>
      <trkpt lat="43.76042" lon="4.22809">
        <ele>114</ele>
        <time>2014-10-27T15:02:21Z</time>
      </trkpt>
      <trkpt lat="43.76064" lon="4.2282">
        <ele>115</ele>
        <time>2014-10-27T15:02:29Z</time>
      </trkpt>
      <trkpt lat="43.76086" lon="4.22833">
        <ele>117</ele>
        <time>2014-10-27T15:02:37Z</time>
      </trkpt>
      <trkpt lat="43.76101" lon="4.22838">
        <ele>117</ele>
        <time>2014-10-27T15:02:42Z</time>
      </trkpt>
      <trkpt lat="43.7612" lon="4.22841">
        <ele>118</ele>
        <time>2014-10-27T15:02:48Z</time>
      </trkpt>
      <trkpt lat="43.76129" lon="4.22843">
        <ele>117</ele>
        <time>2014-10-27T15:02:51Z</time>
      </trkpt>
      <trkpt lat="43.76151" lon="4.2285">
        <ele>119</ele>
        <time>2014-10-27T15:02:59Z</time>
      </trkpt>
      <trkpt lat="43.76157" lon="4.22851">
        <ele>117</ele>
        <time>2014-10-27T15:03:02Z</time>
      </trkpt>
      <trkpt lat="43.76173" lon="4.22859">
        <ele>117</ele>
        <time>2014-10-27T15:03:15Z</time>
      </trkpt>
      <trkpt lat="43.76187" lon="4.22863">
        <ele>117</ele>
        <time>2014-10-27T15:03:23Z</time>
      </trkpt>
      <trkpt lat="43.76198" lon="4.22868">
        <ele>117</ele>
        <time>2014-10-27T15:03:31Z</time>
      </trkpt>
      <trkpt lat="43.76201" lon="4.2287">
        <ele>116</ele>
        <time>2014-10-27T15:03:34Z</time>
      </trkpt>
      <trkpt lat="43.76201" lon="4.2287">
        <ele>73.3</ele>
        <time>2014-10-27T15:03:41Z</time>
      </trkpt>
      <trkpt lat="43.76201" lon="4.2287">
        <ele>73.3</ele>
        <time>2014-10-27T15:08:09Z</time>
      </trkpt>
      <trkpt lat="43.76217" lon="4.22884">
        <ele>116</ele>
        <time>2014-10-27T15:08:09Z</time>
      </trkpt>
      <trkpt lat="43.76234" lon="4.2289">
        <ele>116</ele>
        <time>2014-10-27T15:08:18Z</time>
      </trkpt>
      <trkpt lat="43.76254" lon="4.22893">
        <ele>116</ele>
        <time>2014-10-27T15:08:27Z</time>
      </trkpt>
      <trkpt lat="43.76275" lon="4.22896">
        <ele>119</ele>
        <time>2014-10-27T15:08:36Z</time>
      </trkpt>
      <trkpt lat="43.76293" lon="4.22899">
        <ele>120</ele>
        <time>2014-10-27T15:08:44Z</time>
      </trkpt>
      <trkpt lat="43.76319" lon="4.22905">
        <ele>123</ele>
        <time>2014-10-27T15:08:55Z</time>
      </trkpt>
      <trkpt lat="43.76335" lon="4.22915">
        <ele>126</ele>
        <time>2014-10-27T15:09:02Z</time>
      </trkpt>
      <trkpt lat="43.76349" lon="4.22924">
        <ele>127</ele>
        <time>2014-10-27T15:09:07Z</time>
      </trkpt>
      <trkpt lat="43.76362" lon="4.22934">
        <ele>128</ele>
        <time>2014-10-27T15:09:12Z</time>
      </trkpt>
      <trkpt lat="43.76378" lon="4.2294">
        <ele>129</ele>
        <time>2014-10-27T15:09:20Z</time>
      </trkpt>
      <trkpt lat="43.76394" lon="4.2292">
        <ele>128</ele>
        <time>2014-10-27T15:09:31Z</time>
      </trkpt>
      <trkpt lat="43.76411" lon="4.22894">
        <ele>129</ele>
        <time>2014-10-27T15:09:40Z</time>
      </trkpt>
      <trkpt lat="43.76439" lon="4.22852">
        <ele>129</ele>
        <time>2014-10-27T15:09:51Z</time>
      </trkpt>
      <trkpt lat="43.76454" lon="4.22831">
        <ele>125</ele>
        <time>2014-10-27T15:09:57Z</time>
      </trkpt>
      <trkpt lat="43.76467" lon="4.22797">
        <ele>124</ele>
        <time>2014-10-27T15:10:05Z</time>
      </trkpt>
      <trkpt lat="43.76495" lon="4.22767">
        <ele>123</ele>
        <time>2014-10-27T15:10:13Z</time>
      </trkpt>
      <trkpt lat="43.76515" lon="4.22738">
        <ele>118</ele>
        <time>2014-10-27T15:10:20Z</time>
      </trkpt>
      <trkpt lat="43.76529" lon="4.22742">
        <ele>120</ele>
        <time>2014-10-27T15:10:26Z</time>
      </trkpt>
      <trkpt lat="43.76546" lon="4.22743">
        <ele>123</ele>
        <time>2014-10-27T15:10:33Z</time>
      </trkpt>
      <trkpt lat="43.7657" lon="4.22718">
        <ele>123</ele>
        <time>2014-10-27T15:10:40Z</time>
      </trkpt>
      <trkpt lat="43.76591" lon="4.22698">
        <ele>127</ele>
        <time>2014-10-27T15:10:46Z</time>
      </trkpt>
      <trkpt lat="43.7661" lon="4.22685">
        <ele>127</ele>
        <time>2014-10-27T15:10:51Z</time>
      </trkpt>
      <trkpt lat="43.76631" lon="4.2268">
        <ele>133</ele>
        <time>2014-10-27T15:10:57Z</time>
      </trkpt>
      <trkpt lat="43.76652" lon="4.22675">
        <ele>136</ele>
        <time>2014-10-27T15:11:03Z</time>
      </trkpt>
      <trkpt lat="43.76672" lon="4.22664">
        <ele>134</ele>
        <time>2014-10-27T15:11:08Z</time>
      </trkpt>
      <trkpt lat="43.76695" lon="4.22649">
        <ele>130</ele>
        <time>2014-10-27T15:11:14Z</time>
      </trkpt>
      <trkpt lat="43.7671" lon="4.22645">
        <ele>124</ele>
        <time>2014-10-27T15:11:20Z</time>
      </trkpt>
      <trkpt lat="43.76738" lon="4.22659">
        <ele>128</ele>
        <time>2014-10-27T15:11:32Z</time>
      </trkpt>
      <trkpt lat="43.76765" lon="4.22661">
        <ele>124</ele>
        <time>2014-10-27T15:11:40Z</time>
      </trkpt>
      <trkpt lat="43.76779" lon="4.22647">
        <ele>120</ele>
        <time>2014-10-27T15:11:47Z</time>
      </trkpt>
      <trkpt lat="43.76816" lon="4.22638">
        <ele>123</ele>
        <time>2014-10-27T15:11:58Z</time>
      </trkpt>
      <trkpt lat="43.76831" lon="4.22643">
        <ele>119</ele>
        <time>2014-10-27T15:12:05Z</time>
      </trkpt>
      <trkpt lat="43.76851" lon="4.2263">
        <ele>117</ele>
        <time>2014-10-27T15:12:13Z</time>
      </trkpt>
      <trkpt lat="43.76886" lon="4.22634">
        <ele>118</ele>
        <time>2014-10-27T15:12:22Z</time>
      </trkpt>
      <trkpt lat="43.7691" lon="4.22626">
        <ele>117</ele>
        <time>2014-10-27T15:12:28Z</time>
      </trkpt>
      <trkpt lat="43.76928" lon="4.22612">
        <ele>114</ele>
        <time>2014-10-27T15:12:33Z</time>
      </trkpt>
      <trkpt lat="43.76951" lon="4.22597">
        <ele>113</ele>
        <time>2014-10-27T15:12:39Z</time>
      </trkpt>
      <trkpt lat="43.76981" lon="4.22614">
        <ele>116</ele>
        <time>2014-10-27T15:12:47Z</time>
      </trkpt>
      <trkpt lat="43.77003" lon="4.22618">
        <ele>109</ele>
        <time>2014-10-27T15:12:52Z</time>
      </trkpt>
      <trkpt lat="43.77027" lon="4.22653">
        <ele>109</ele>
        <time>2014-10-27T15:12:58Z</time>
      </trkpt>
      <trkpt lat="43.77045" lon="4.22689">
        <ele>107</ele>
        <time>2014-10-27T15:13:04Z</time>
      </trkpt>
      <trkpt lat="43.77062" lon="4.22718">
        <ele>109</ele>
        <time>2014-10-27T15:13:09Z</time>
      </trkpt>
      <trkpt lat="43.77074" lon="4.22745">
        <ele>107</ele>
        <time>2014-10-27T15:13:15Z</time>
      </trkpt>
      <trkpt lat="43.77083" lon="4.22764">
        <ele>108</ele>
        <time>2014-10-27T15:13:21Z</time>
      </trkpt>
      <trkpt lat="43.77088" lon="4.22779">
        <ele>111</ele>
        <time>2014-10-27T15:13:26Z</time>
      </trkpt>
      <trkpt lat="43.77102" lon="4.22803">
        <ele>110</ele>
        <time>2014-10-27T15:13:35Z</time>
      </trkpt>
      <trkpt lat="43.77116" lon="4.22824">
        <ele>103</ele>
        <time>2014-10-27T15:13:41Z</time>
      </trkpt>
      <trkpt lat="43.77128" lon="4.22847">
        <ele>103</ele>
        <time>2014-10-27T15:13:47Z</time>
      </trkpt>
      <trkpt lat="43.77139" lon="4.22875">
        <ele>103</ele>
        <time>2014-10-27T15:13:53Z</time>
      </trkpt>
      <trkpt lat="43.7715" lon="4.22901">
        <ele>104</ele>
        <time>2014-10-27T15:14:01Z</time>
      </trkpt>
      <trkpt lat="43.7717" lon="4.22918">
        <ele>100</ele>
        <time>2014-10-27T15:14:10Z</time>
      </trkpt>
      <trkpt lat="43.77178" lon="4.22925">
        <ele>99</ele>
        <time>2014-10-27T15:14:13Z</time>
      </trkpt>
      <trkpt lat="43.77188" lon="4.22932">
        <ele>99</ele>
        <time>2014-10-27T15:14:17Z</time>
      </trkpt>
      <trkpt lat="43.772" lon="4.22962">
        <ele>102</ele>
        <time>2014-10-27T15:14:25Z</time>
      </trkpt>
      <trkpt lat="43.77213" lon="4.22989">
        <ele>104</ele>
        <time>2014-10-27T15:14:32Z</time>
      </trkpt>
      <trkpt lat="43.77231" lon="4.23012">
        <ele>106</ele>
        <time>2014-10-27T15:14:39Z</time>
      </trkpt>
      <trkpt lat="43.77245" lon="4.23033">
        <ele>104</ele>
        <time>2014-10-27T15:14:45Z</time>
      </trkpt>
      <trkpt lat="43.77251" lon="4.23043">
        <ele>105</ele>
        <time>2014-10-27T15:14:48Z</time>
      </trkpt>
      <trkpt lat="43.77257" lon="4.23053">
        <ele>107</ele>
        <time>2014-10-27T15:14:51Z</time>
      </trkpt>
      <trkpt lat="43.77268" lon="4.23078">
        <ele>104</ele>
        <time>2014-10-27T15:14:58Z</time>
      </trkpt>
      <trkpt lat="43.77285" lon="4.23102">
        <ele>106</ele>
        <time>2014-10-27T15:15:07Z</time>
      </trkpt>
      <trkpt lat="43.77304" lon="4.23122">
        <ele>106</ele>
        <time>2014-10-27T15:15:15Z</time>
      </trkpt>
      <trkpt lat="43.77311" lon="4.2313">
        <ele>104</ele>
        <time>2014-10-27T15:15:18Z</time>
      </trkpt>
      <trkpt lat="43.77335" lon="4.23155">
        <ele>102</ele>
        <time>2014-10-27T15:15:26Z</time>
      </trkpt>
      <trkpt lat="43.77351" lon="4.2318">
        <ele>102</ele>
        <time>2014-10-27T15:15:31Z</time>
      </trkpt>
      <trkpt lat="43.77369" lon="4.23209">
        <ele>103</ele>
        <time>2014-10-27T15:15:37Z</time>
      </trkpt>
      <trkpt lat="43.77385" lon="4.23235">
        <ele>105</ele>
        <time>2014-10-27T15:15:42Z</time>
      </trkpt>
      <trkpt lat="43.77402" lon="4.23269">
        <ele>108</ele>
        <time>2014-10-27T15:15:49Z</time>
      </trkpt>
      <trkpt lat="43.77414" lon="4.23297">
        <ele>110</ele>
        <time>2014-10-27T15:15:54Z</time>
      </trkpt>
      <trkpt lat="43.77429" lon="4.2333">
        <ele>111</ele>
        <time>2014-10-27T15:16:00Z</time>
      </trkpt>
      <trkpt lat="43.77441" lon="4.23355">
        <ele>107</ele>
        <time>2014-10-27T15:16:06Z</time>
      </trkpt>
      <trkpt lat="43.7745" lon="4.23376">
        <ele>110</ele>
        <time>2014-10-27T15:16:13Z</time>
      </trkpt>
      <trkpt lat="43.77457" lon="4.23416">
        <ele>109</ele>
        <time>2014-10-27T15:16:21Z</time>
      </trkpt>
      <trkpt lat="43.77451" lon="4.23448">
        <ele>100</ele>
        <time>2014-10-27T15:16:28Z</time>
      </trkpt>
      <trkpt lat="43.77433" lon="4.23473">
        <ele>102</ele>
        <time>2014-10-27T15:16:35Z</time>
      </trkpt>
      <trkpt lat="43.77412" lon="4.23494">
        <ele>103</ele>
        <time>2014-10-27T15:16:42Z</time>
      </trkpt>
      <trkpt lat="43.77395" lon="4.23513">
        <ele>103</ele>
        <time>2014-10-27T15:16:48Z</time>
      </trkpt>
      <trkpt lat="43.77381" lon="4.23532">
        <ele>104</ele>
        <time>2014-10-27T15:16:55Z</time>
      </trkpt>
      <trkpt lat="43.77361" lon="4.23564">
        <ele>103</ele>
        <time>2014-10-27T15:17:02Z</time>
      </trkpt>
      <trkpt lat="43.77346" lon="4.23587">
        <ele>101</ele>
        <time>2014-10-27T15:17:07Z</time>
      </trkpt>
      <trkpt lat="43.77329" lon="4.23615">
        <ele>101</ele>
        <time>2014-10-27T15:17:13Z</time>
      </trkpt>
      <trkpt lat="43.77313" lon="4.23643">
        <ele>103</ele>
        <time>2014-10-27T15:17:19Z</time>
      </trkpt>
      <trkpt lat="43.77297" lon="4.23669">
        <ele>103</ele>
        <time>2014-10-27T15:17:25Z</time>
      </trkpt>
      <trkpt lat="43.77281" lon="4.23696">
        <ele>103</ele>
        <time>2014-10-27T15:17:31Z</time>
      </trkpt>
      <trkpt lat="43.77267" lon="4.23726">
        <ele>101</ele>
        <time>2014-10-27T15:17:37Z</time>
      </trkpt>
      <trkpt lat="43.77255" lon="4.23757">
        <ele>101</ele>
        <time>2014-10-27T15:17:43Z</time>
      </trkpt>
      <trkpt lat="43.77246" lon="4.23782">
        <ele>101</ele>
        <time>2014-10-27T15:17:48Z</time>
      </trkpt>
      <trkpt lat="43.77228" lon="4.23813">
        <ele>101</ele>
        <time>2014-10-27T15:17:55Z</time>
      </trkpt>
      <trkpt lat="43.77213" lon="4.23837">
        <ele>99</ele>
        <time>2014-10-27T15:18:01Z</time>
      </trkpt>
      <trkpt lat="43.77199" lon="4.23863">
        <ele>100</ele>
        <time>2014-10-27T15:18:08Z</time>
      </trkpt>
      <trkpt lat="43.77187" lon="4.23878">
        <ele>103</ele>
        <time>2014-10-27T15:18:13Z</time>
      </trkpt>
      <trkpt lat="43.77171" lon="4.23886">
        <ele>103</ele>
        <time>2014-10-27T15:18:18Z</time>
      </trkpt>
      <trkpt lat="43.77147" lon="4.23901">
        <ele>104</ele>
        <time>2014-10-27T15:18:26Z</time>
      </trkpt>
      <trkpt lat="43.77126" lon="4.23926">
        <ele>107</ele>
        <time>2014-10-27T15:18:34Z</time>
      </trkpt>
      <trkpt lat="43.77117" lon="4.2394">
        <ele>107</ele>
        <time>2014-10-27T15:18:39Z</time>
      </trkpt>
      <trkpt lat="43.77106" lon="4.2396">
        <ele>108</ele>
        <time>2014-10-27T15:18:48Z</time>
      </trkpt>
      <trkpt lat="43.771" lon="4.23969">
        <ele>108</ele>
        <time>2014-10-27T15:18:51Z</time>
      </trkpt>
      <trkpt lat="43.77086" lon="4.23991">
        <ele>109</ele>
        <time>2014-10-27T15:18:59Z</time>
      </trkpt>
      <trkpt lat="43.7708" lon="4.24001">
        <ele>111</ele>
        <time>2014-10-27T15:19:02Z</time>
      </trkpt>
      <trkpt lat="43.77072" lon="4.24015">
        <ele>112</ele>
        <time>2014-10-27T15:19:06Z</time>
      </trkpt>
      <trkpt lat="43.77057" lon="4.24042">
        <ele>114</ele>
        <time>2014-10-27T15:19:14Z</time>
      </trkpt>
      <trkpt lat="43.77046" lon="4.24071">
        <ele>113</ele>
        <time>2014-10-27T15:19:22Z</time>
      </trkpt>
      <trkpt lat="43.77035" lon="4.241">
        <ele>114</ele>
        <time>2014-10-27T15:19:30Z</time>
      </trkpt>
      <trkpt lat="43.77042" lon="4.24124">
        <ele>116</ele>
        <time>2014-10-27T15:19:37Z</time>
      </trkpt>
      <trkpt lat="43.77057" lon="4.2413">
        <ele>116</ele>
        <time>2014-10-27T15:19:42Z</time>
      </trkpt>
      <trkpt lat="43.77077" lon="4.24142">
        <ele>119</ele>
        <time>2014-10-27T15:19:49Z</time>
      </trkpt>
      <trkpt lat="43.77092" lon="4.2415">
        <ele>120</ele>
        <time>2014-10-27T15:19:56Z</time>
      </trkpt>
      <trkpt lat="43.77112" lon="4.24164">
        <ele>122</ele>
        <time>2014-10-27T15:20:04Z</time>
      </trkpt>
      <trkpt lat="43.7713" lon="4.24182">
        <ele>120</ele>
        <time>2014-10-27T15:20:10Z</time>
      </trkpt>
      <trkpt lat="43.77149" lon="4.24198">
        <ele>122</ele>
        <time>2014-10-27T15:20:17Z</time>
      </trkpt>
      <trkpt lat="43.77165" lon="4.24208">
        <ele>122</ele>
        <time>2014-10-27T15:20:23Z</time>
      </trkpt>
      <trkpt lat="43.77177" lon="4.2422">
        <ele>122</ele>
        <time>2014-10-27T15:20:28Z</time>
      </trkpt>
      <trkpt lat="43.77195" lon="4.24236">
        <ele>119</ele>
        <time>2014-10-27T15:20:35Z</time>
      </trkpt>
      <trkpt lat="43.77215" lon="4.24243">
        <ele>123</ele>
        <time>2014-10-27T15:20:42Z</time>
      </trkpt>
      <trkpt lat="43.77235" lon="4.24251">
        <ele>125</ele>
        <time>2014-10-27T15:20:49Z</time>
      </trkpt>
      <trkpt lat="43.77243" lon="4.24256">
        <ele>125</ele>
        <time>2014-10-27T15:20:52Z</time>
      </trkpt>
      <trkpt lat="43.77262" lon="4.24266">
        <ele>128</ele>
        <time>2014-10-27T15:20:59Z</time>
      </trkpt>
      <trkpt lat="43.77281" lon="4.24275">
        <ele>128</ele>
        <time>2014-10-27T15:21:05Z</time>
      </trkpt>
      <trkpt lat="43.77305" lon="4.2429">
        <ele>130</ele>
        <time>2014-10-27T15:21:12Z</time>
      </trkpt>
      <trkpt lat="43.77315" lon="4.24296">
        <ele>128</ele>
        <time>2014-10-27T15:21:15Z</time>
      </trkpt>
      <trkpt lat="43.77326" lon="4.24302">
        <ele>130</ele>
        <time>2014-10-27T15:21:18Z</time>
      </trkpt>
      <trkpt lat="43.77339" lon="4.2431">
        <ele>126</ele>
        <time>2014-10-27T15:21:22Z</time>
      </trkpt>
      <trkpt lat="43.77349" lon="4.24318">
        <ele>126</ele>
        <time>2014-10-27T15:21:25Z</time>
      </trkpt>
      <trkpt lat="43.77359" lon="4.24325">
        <ele>127</ele>
        <time>2014-10-27T15:21:28Z</time>
      </trkpt>
      <trkpt lat="43.7737" lon="4.24331">
        <ele>128</ele>
        <time>2014-10-27T15:21:31Z</time>
      </trkpt>
      <trkpt lat="43.77381" lon="4.24338">
        <ele>126</ele>
        <time>2014-10-27T15:21:34Z</time>
      </trkpt>
      <trkpt lat="43.77396" lon="4.24348">
        <ele>126</ele>
        <time>2014-10-27T15:21:38Z</time>
      </trkpt>
      <trkpt lat="43.77406" lon="4.24356">
        <ele>127</ele>
        <time>2014-10-27T15:21:42Z</time>
      </trkpt>
      <trkpt lat="43.77426" lon="4.24375">
        <ele>130</ele>
        <time>2014-10-27T15:21:50Z</time>
      </trkpt>
      <trkpt lat="43.77447" lon="4.24392">
        <ele>127</ele>
        <time>2014-10-27T15:21:57Z</time>
      </trkpt>
      <trkpt lat="43.77461" lon="4.24406">
        <ele>127</ele>
        <time>2014-10-27T15:22:03Z</time>
      </trkpt>
      <trkpt lat="43.77469" lon="4.24419">
        <ele>128</ele>
        <time>2014-10-27T15:22:11Z</time>
      </trkpt>
      <trkpt lat="43.77446" lon="4.24487">
        <ele>128</ele>
        <time>2014-10-27T15:22:25Z</time>
      </trkpt>
      <trkpt lat="43.7744" lon="4.24508">
        <ele>120</ele>
        <time>2014-10-27T15:22:29Z</time>
      </trkpt>
      <trkpt lat="43.77436" lon="4.2453">
        <ele>124</ele>
        <time>2014-10-27T15:22:34Z</time>
      </trkpt>
      <trkpt lat="43.77402" lon="4.24514">
        <ele>128</ele>
        <time>2014-10-27T15:22:42Z</time>
      </trkpt>
      <trkpt lat="43.7737" lon="4.24492">
        <ele>123</ele>
        <time>2014-10-27T15:22:50Z</time>
      </trkpt>
      <trkpt lat="43.7735" lon="4.24474">
        <ele>124</ele>
        <time>2014-10-27T15:22:56Z</time>
      </trkpt>
      <trkpt lat="43.77321" lon="4.24462">
        <ele>121</ele>
        <time>2014-10-27T15:23:02Z</time>
      </trkpt>
      <trkpt lat="43.773" lon="4.24457">
        <ele>119</ele>
        <time>2014-10-27T15:23:07Z</time>
      </trkpt>
      <trkpt lat="43.77268" lon="4.24452">
        <ele>118</ele>
        <time>2014-10-27T15:23:13Z</time>
      </trkpt>
      <trkpt lat="43.77232" lon="4.24454">
        <ele>121</ele>
        <time>2014-10-27T15:23:19Z</time>
      </trkpt>
      <trkpt lat="43.77206" lon="4.24453">
        <ele>123</ele>
        <time>2014-10-27T15:23:24Z</time>
      </trkpt>
      <trkpt lat="43.77183" lon="4.24461">
        <ele>122</ele>
        <time>2014-10-27T15:23:29Z</time>
      </trkpt>
      <trkpt lat="43.77168" lon="4.24474">
        <ele>124</ele>
        <time>2014-10-27T15:23:34Z</time>
      </trkpt>
      <trkpt lat="43.77147" lon="4.24488">
        <ele>124</ele>
        <time>2014-10-27T15:23:39Z</time>
      </trkpt>
      <trkpt lat="43.7713" lon="4.24509">
        <ele>119</ele>
        <time>2014-10-27T15:23:44Z</time>
      </trkpt>
      <trkpt lat="43.77116" lon="4.24536">
        <ele>118</ele>
        <time>2014-10-27T15:23:49Z</time>
      </trkpt>
      <trkpt lat="43.77107" lon="4.24558">
        <ele>117</ele>
        <time>2014-10-27T15:23:52Z</time>
      </trkpt>
      <trkpt lat="43.77092" lon="4.24598">
        <ele>118</ele>
        <time>2014-10-27T15:23:58Z</time>
      </trkpt>
      <trkpt lat="43.77088" lon="4.24609">
        <ele>119</ele>
        <time>2014-10-27T15:24:02Z</time>
      </trkpt>
      <trkpt lat="43.77088" lon="4.24609">
        <ele>74.2</ele>
        <time>2014-10-27T15:24:08Z</time>
      </trkpt>
      <trkpt lat="43.77088" lon="4.24609">
        <ele>74.2</ele>
        <time>2014-10-27T15:26:04Z</time>
      </trkpt>
      <trkpt lat="43.77075" lon="4.2463">
        <ele>118</ele>
        <time>2014-10-27T15:26:04Z</time>
      </trkpt>
      <trkpt lat="43.77069" lon="4.24643">
        <ele>120</ele>
        <time>2014-10-27T15:26:08Z</time>
      </trkpt>
      <trkpt lat="43.77058" lon="4.24708">
        <ele>119</ele>
        <time>2014-10-27T15:26:16Z</time>
      </trkpt>
      <trkpt lat="43.77058" lon="4.24735">
        <ele>116</ele>
        <time>2014-10-27T15:26:19Z</time>
      </trkpt>
      <trkpt lat="43.77043" lon="4.24782">
        <ele>111</ele>
        <time>2014-10-27T15:26:25Z</time>
      </trkpt>
      <trkpt lat="43.77023" lon="4.2481">
        <ele>106</ele>
        <time>2014-10-27T15:26:32Z</time>
      </trkpt>
      <trkpt lat="43.76988" lon="4.248">
        <ele>105</ele>
        <time>2014-10-27T15:26:39Z</time>
      </trkpt>
      <trkpt lat="43.76963" lon="4.2479">
        <ele>100</ele>
        <time>2014-10-27T15:26:44Z</time>
      </trkpt>
      <trkpt lat="43.76946" lon="4.24801">
        <ele>99</ele>
        <time>2014-10-27T15:26:49Z</time>
      </trkpt>
      <trkpt lat="43.76943" lon="4.24806">
        <ele>100</ele>
        <time>2014-10-27T15:26:53Z</time>
      </trkpt>
      <trkpt lat="43.76943" lon="4.24806">
        <ele>58.8</ele>
        <time>2014-10-27T15:26:59Z</time>
      </trkpt>
      <trkpt lat="43.76943" lon="4.24806">
        <ele>58.8</ele>
        <time>2014-10-27T15:28:15Z</time>
      </trkpt>
      <trkpt lat="43.76944" lon="4.24823">
        <ele>102</ele>
        <time>2014-10-27T15:28:15Z</time>
      </trkpt>
      <trkpt lat="43.76944" lon="4.24843">
        <ele>99</ele>
        <time>2014-10-27T15:28:19Z</time>
      </trkpt>
      <trkpt lat="43.76945" lon="4.24863">
        <ele>102</ele>
        <time>2014-10-27T15:28:23Z</time>
      </trkpt>
      <trkpt lat="43.76945" lon="4.24877">
        <ele>103</ele>
        <time>2014-10-27T15:28:26Z</time>
      </trkpt>
      <trkpt lat="43.76944" lon="4.24916">
        <ele>101</ele>
        <time>2014-10-27T15:28:33Z</time>
      </trkpt>
      <trkpt lat="43.76945" lon="4.24958">
        <ele>97</ele>
        <time>2014-10-27T15:28:39Z</time>
      </trkpt>
      <trkpt lat="43.76956" lon="4.25016">
        <ele>93</ele>
        <time>2014-10-27T15:28:46Z</time>
      </trkpt>
      <trkpt lat="43.76962" lon="4.25074">
        <ele>90</ele>
        <time>2014-10-27T15:28:52Z</time>
      </trkpt>
      <trkpt lat="43.76964" lon="4.25106">
        <ele>90</ele>
        <time>2014-10-27T15:28:55Z</time>
      </trkpt>
      <trkpt lat="43.76965" lon="4.25157">
        <ele>94</ele>
        <time>2014-10-27T15:29:00Z</time>
      </trkpt>
      <trkpt lat="43.76972" lon="4.25205">
        <ele>95</ele>
        <time>2014-10-27T15:29:06Z</time>
      </trkpt>
      <trkpt lat="43.76984" lon="4.25213">
        <ele>97</ele>
        <time>2014-10-27T15:29:13Z</time>
      </trkpt>
      <trkpt lat="43.7701" lon="4.25204">
        <ele>97</ele>
        <time>2014-10-27T15:29:20Z</time>
      </trkpt>
      <trkpt lat="43.77021" lon="4.25198">
        <ele>96</ele>
        <time>2014-10-27T15:29:23Z</time>
      </trkpt>
      <trkpt lat="43.77045" lon="4.2519">
        <ele>96</ele>
        <time>2014-10-27T15:29:29Z</time>
      </trkpt>
      <trkpt lat="43.77073" lon="4.25178">
        <ele>96</ele>
        <time>2014-10-27T15:29:35Z</time>
      </trkpt>
      <trkpt lat="43.77096" lon="4.25164">
        <ele>97</ele>
        <time>2014-10-27T15:29:41Z</time>
      </trkpt>
      <trkpt lat="43.77113" lon="4.25153">
        <ele>96</ele>
        <time>2014-10-27T15:29:46Z</time>
      </trkpt>
      <trkpt lat="43.77131" lon="4.25127">
        <ele>95</ele>
        <time>2014-10-27T15:29:53Z</time>
      </trkpt>
      <trkpt lat="43.77149" lon="4.25104">
        <ele>96</ele>
        <time>2014-10-27T15:29:59Z</time>
      </trkpt>
      <trkpt lat="43.77162" lon="4.25084">
        <ele>97</ele>
        <time>2014-10-27T15:30:05Z</time>
      </trkpt>
      <trkpt lat="43.77177" lon="4.25063">
        <ele>99</ele>
        <time>2014-10-27T15:30:11Z</time>
      </trkpt>
      <trkpt lat="43.77195" lon="4.25037">
        <ele>98</ele>
        <time>2014-10-27T15:30:18Z</time>
      </trkpt>
      <trkpt lat="43.7721" lon="4.25016">
        <ele>100</ele>
        <time>2014-10-27T15:30:24Z</time>
      </trkpt>
      <trkpt lat="43.77234" lon="4.24997">
        <ele>102</ele>
        <time>2014-10-27T15:30:32Z</time>
      </trkpt>
      <trkpt lat="43.7726" lon="4.2499">
        <ele>107</ele>
        <time>2014-10-27T15:30:40Z</time>
      </trkpt>
      <trkpt lat="43.77281" lon="4.24977">
        <ele>104</ele>
        <time>2014-10-27T15:30:47Z</time>
      </trkpt>
      <trkpt lat="43.77304" lon="4.24962">
        <ele>108</ele>
        <time>2014-10-27T15:30:54Z</time>
      </trkpt>
      <trkpt lat="43.77322" lon="4.24954">
        <ele>109</ele>
        <time>2014-10-27T15:30:59Z</time>
      </trkpt>
      <trkpt lat="43.77343" lon="4.24944">
        <ele>105</ele>
        <time>2014-10-27T15:31:05Z</time>
      </trkpt>
      <trkpt lat="43.77356" lon="4.24922">
        <ele>105</ele>
        <time>2014-10-27T15:31:11Z</time>
      </trkpt>
      <trkpt lat="43.77347" lon="4.24901">
        <ele>105</ele>
        <time>2014-10-27T15:31:18Z</time>
      </trkpt>
      <trkpt lat="43.77353" lon="4.24879">
        <ele>107</ele>
        <time>2014-10-27T15:31:29Z</time>
      </trkpt>
      <trkpt lat="43.77385" lon="4.24852">
        <ele>107</ele>
        <time>2014-10-27T15:31:39Z</time>
      </trkpt>
      <trkpt lat="43.77405" lon="4.24839">
        <ele>109</ele>
        <time>2014-10-27T15:31:45Z</time>
      </trkpt>
      <trkpt lat="43.77431" lon="4.24829">
        <ele>109</ele>
        <time>2014-10-27T15:31:52Z</time>
      </trkpt>
      <trkpt lat="43.77452" lon="4.24826">
        <ele>113</ele>
        <time>2014-10-27T15:31:59Z</time>
      </trkpt>
      <trkpt lat="43.77483" lon="4.24812">
        <ele>114</ele>
        <time>2014-10-27T15:32:07Z</time>
      </trkpt>
      <trkpt lat="43.77498" lon="4.24792">
        <ele>110</ele>
        <time>2014-10-27T15:32:13Z</time>
      </trkpt>
      <trkpt lat="43.7752" lon="4.24783">
        <ele>114</ele>
        <time>2014-10-27T15:32:20Z</time>
      </trkpt>
      <trkpt lat="43.77542" lon="4.24781">
        <ele>117</ele>
        <time>2014-10-27T15:32:27Z</time>
      </trkpt>
      <trkpt lat="43.77552" lon="4.2478">
        <ele>116</ele>
        <time>2014-10-27T15:32:31Z</time>
      </trkpt>
      <trkpt lat="43.77564" lon="4.24776">
        <ele>125</ele>
        <time>2014-10-27T15:32:36Z</time>
      </trkpt>
      <trkpt lat="43.77584" lon="4.24771">
        <ele>120</ele>
        <time>2014-10-27T15:32:45Z</time>
      </trkpt>
      <trkpt lat="43.77599" lon="4.2477">
        <ele>123</ele>
        <time>2014-10-27T15:32:51Z</time>
      </trkpt>
      <trkpt lat="43.77618" lon="4.24748">
        <ele>124</ele>
        <time>2014-10-27T15:33:01Z</time>
      </trkpt>
      <trkpt lat="43.77627" lon="4.24733">
        <ele>127</ele>
        <time>2014-10-27T15:33:07Z</time>
      </trkpt>
      <trkpt lat="43.77631" lon="4.24709">
        <ele>124</ele>
        <time>2014-10-27T15:33:17Z</time>
      </trkpt>
      <trkpt lat="43.77626" lon="4.24682">
        <ele>126</ele>
        <time>2014-10-27T15:33:27Z</time>
      </trkpt>
      <trkpt lat="43.77631" lon="4.24663">
        <ele>126</ele>
        <time>2014-10-27T15:33:34Z</time>
      </trkpt>
      <trkpt lat="43.77638" lon="4.24641">
        <ele>125</ele>
        <time>2014-10-27T15:33:41Z</time>
      </trkpt>
      <trkpt lat="43.77645" lon="4.24611">
        <ele>123</ele>
        <time>2014-10-27T15:33:50Z</time>
      </trkpt>
      <trkpt lat="43.77651" lon="4.24586">
        <ele>123</ele>
        <time>2014-10-27T15:33:58Z</time>
      </trkpt>
      <trkpt lat="43.77653" lon="4.24565">
        <ele>125</ele>
        <time>2014-10-27T15:34:07Z</time>
      </trkpt>
      <trkpt lat="43.77657" lon="4.24553">
        <ele>126</ele>
        <time>2014-10-27T15:34:16Z</time>
      </trkpt>
      <trkpt lat="43.77657" lon="4.24553">
        <ele>81.8</ele>
        <time>2014-10-27T15:34:23Z</time>
      </trkpt>
      <trkpt lat="43.77657" lon="4.24553">
        <ele>81.8</ele>
        <time>2014-10-27T15:36:26Z</time>
      </trkpt>
      <trkpt lat="43.7767" lon="4.24547">
        <ele>136</ele>
        <time>2014-10-27T15:36:26Z</time>
      </trkpt>
      <trkpt lat="43.7768" lon="4.24531">
        <ele>136</ele>
        <time>2014-10-27T15:36:33Z</time>
      </trkpt>
      <trkpt lat="43.77689" lon="4.24515">
        <ele>138</ele>
        <time>2014-10-27T15:36:39Z</time>
      </trkpt>
      <trkpt lat="43.7771" lon="4.24511">
        <ele>142</ele>
        <time>2014-10-27T15:36:48Z</time>
      </trkpt>
      <trkpt lat="43.77731" lon="4.24516">
        <ele>142</ele>
        <time>2014-10-27T15:36:56Z</time>
      </trkpt>
      <trkpt lat="43.77738" lon="4.24519">
        <ele>143</ele>
        <time>2014-10-27T15:36:59Z</time>
      </trkpt>
      <trkpt lat="43.77747" lon="4.24521">
        <ele>141</ele>
        <time>2014-10-27T15:37:03Z</time>
      </trkpt>
      <trkpt lat="43.77758" lon="4.24523">
        <ele>140</ele>
        <time>2014-10-27T15:37:08Z</time>
      </trkpt>
      <trkpt lat="43.77778" lon="4.24525">
        <ele>143</ele>
        <time>2014-10-27T15:37:17Z</time>
      </trkpt>
      <trkpt lat="43.77787" lon="4.24526">
        <ele>143</ele>
        <time>2014-10-27T15:37:21Z</time>
      </trkpt>
      <trkpt lat="43.77798" lon="4.24526">
        <ele>144</ele>
        <time>2014-10-27T15:37:26Z</time>
      </trkpt>
      <trkpt lat="43.77821" lon="4.24527">
        <ele>145</ele>
        <time>2014-10-27T15:37:36Z</time>
      </trkpt>
      <trkpt lat="43.77843" lon="4.24529">
        <ele>146</ele>
        <time>2014-10-27T15:37:45Z</time>
      </trkpt>
      <trkpt lat="43.77863" lon="4.24532">
        <ele>140</ele>
        <time>2014-10-27T15:37:53Z</time>
      </trkpt>
      <trkpt lat="43.77886" lon="4.24539">
        <ele>146</ele>
        <time>2014-10-27T15:38:01Z</time>
      </trkpt>
      <trkpt lat="43.77905" lon="4.24542">
        <ele>150</ele>
        <time>2014-10-27T15:38:09Z</time>
      </trkpt>
      <trkpt lat="43.7793" lon="4.24548">
        <ele>150</ele>
        <time>2014-10-27T15:38:18Z</time>
      </trkpt>
      <trkpt lat="43.77954" lon="4.24554">
        <ele>152</ele>
        <time>2014-10-27T15:38:26Z</time>
      </trkpt>
      <trkpt lat="43.77965" lon="4.24554">
        <ele>157</ele>
        <time>2014-10-27T15:38:30Z</time>
      </trkpt>
      <trkpt lat="43.77973" lon="4.24555">
        <ele>157</ele>
        <time>2014-10-27T15:38:33Z</time>
      </trkpt>
      <trkpt lat="43.77994" lon="4.24561">
        <ele>156</ele>
        <time>2014-10-27T15:38:40Z</time>
      </trkpt>
      <trkpt lat="43.78018" lon="4.24566">
        <ele>153</ele>
        <time>2014-10-27T15:38:47Z</time>
      </trkpt>
      <trkpt lat="43.78038" lon="4.24568">
        <ele>156</ele>
        <time>2014-10-27T15:38:53Z</time>
      </trkpt>
      <trkpt lat="43.7806" lon="4.24573">
        <ele>155</ele>
        <time>2014-10-27T15:39:00Z</time>
      </trkpt>
      <trkpt lat="43.78073" lon="4.24578">
        <ele>156</ele>
        <time>2014-10-27T15:39:04Z</time>
      </trkpt>
      <trkpt lat="43.78096" lon="4.24586">
        <ele>157</ele>
        <time>2014-10-27T15:39:11Z</time>
      </trkpt>
      <trkpt lat="43.78122" lon="4.24593">
        <ele>161</ele>
        <time>2014-10-27T15:39:18Z</time>
      </trkpt>
      <trkpt lat="43.78144" lon="4.24598">
        <ele>161</ele>
        <time>2014-10-27T15:39:24Z</time>
      </trkpt>
      <trkpt lat="43.78179" lon="4.24598">
        <ele>159</ele>
        <time>2014-10-27T15:39:32Z</time>
      </trkpt>
      <trkpt lat="43.782" lon="4.24595">
        <ele>159</ele>
        <time>2014-10-27T15:39:37Z</time>
      </trkpt>
      <trkpt lat="43.7822" lon="4.24593">
        <ele>158</ele>
        <time>2014-10-27T15:39:42Z</time>
      </trkpt>
      <trkpt lat="43.78247" lon="4.24592">
        <ele>155</ele>
        <time>2014-10-27T15:39:48Z</time>
      </trkpt>
      <trkpt lat="43.78277" lon="4.24595">
        <ele>155</ele>
        <time>2014-10-27T15:39:55Z</time>
      </trkpt>
      <trkpt lat="43.78302" lon="4.24608">
        <ele>155</ele>
        <time>2014-10-27T15:40:00Z</time>
      </trkpt>
      <trkpt lat="43.78327" lon="4.24615">
        <ele>156</ele>
        <time>2014-10-27T15:40:06Z</time>
      </trkpt>
      <trkpt lat="43.78349" lon="4.24622">
        <ele>157</ele>
        <time>2014-10-27T15:40:12Z</time>
      </trkpt>
      <trkpt lat="43.78372" lon="4.2463">
        <ele>156</ele>
        <time>2014-10-27T15:40:18Z</time>
      </trkpt>
      <trkpt lat="43.78392" lon="4.24634">
        <ele>156</ele>
        <time>2014-10-27T15:40:24Z</time>
      </trkpt>
      <trkpt lat="43.78421" lon="4.24632">
        <ele>154</ele>
        <time>2014-10-27T15:40:32Z</time>
      </trkpt>
      <trkpt lat="43.78445" lon="4.24632">
        <ele>154</ele>
        <time>2014-10-27T15:40:38Z</time>
      </trkpt>
      <trkpt lat="43.78467" lon="4.24628">
        <ele>154</ele>
        <time>2014-10-27T15:40:44Z</time>
      </trkpt>
      <trkpt lat="43.7849" lon="4.24616">
        <ele>156</ele>
        <time>2014-10-27T15:40:50Z</time>
      </trkpt>
      <trkpt lat="43.7852" lon="4.246">
        <ele>157</ele>
        <time>2014-10-27T15:40:57Z</time>
      </trkpt>
      <trkpt lat="43.78545" lon="4.24589">
        <ele>157</ele>
        <time>2014-10-27T15:41:02Z</time>
      </trkpt>
      <trkpt lat="43.78562" lon="4.24578">
        <ele>161</ele>
        <time>2014-10-27T15:41:06Z</time>
      </trkpt>
      <trkpt lat="43.78589" lon="4.24563">
        <ele>164</ele>
        <time>2014-10-27T15:41:12Z</time>
      </trkpt>
      <trkpt lat="43.78613" lon="4.2455">
        <ele>163</ele>
        <time>2014-10-27T15:41:17Z</time>
      </trkpt>
      <trkpt lat="43.78639" lon="4.24536">
        <ele>161</ele>
        <time>2014-10-27T15:41:23Z</time>
      </trkpt>
      <trkpt lat="43.78659" lon="4.24524">
        <ele>163</ele>
        <time>2014-10-27T15:41:28Z</time>
      </trkpt>
      <trkpt lat="43.78681" lon="4.24514">
        <ele>162</ele>
        <time>2014-10-27T15:41:33Z</time>
      </trkpt>
      <trkpt lat="43.78705" lon="4.24501">
        <ele>160</ele>
        <time>2014-10-27T15:41:39Z</time>
      </trkpt>
      <trkpt lat="43.78724" lon="4.24496">
        <ele>159</ele>
        <time>2014-10-27T15:41:44Z</time>
      </trkpt>
      <trkpt lat="43.78737" lon="4.24507">
        <ele>158</ele>
        <time>2014-10-27T15:41:50Z</time>
      </trkpt>
      <trkpt lat="43.78744" lon="4.24541">
        <ele>157</ele>
        <time>2014-10-27T15:41:57Z</time>
      </trkpt>
      <trkpt lat="43.78749" lon="4.24572">
        <ele>153</ele>
        <time>2014-10-27T15:42:03Z</time>
      </trkpt>
      <trkpt lat="43.78735" lon="4.24622">
        <ele>146</ele>
        <time>2014-10-27T15:42:10Z</time>
      </trkpt>
      <trkpt lat="43.7871" lon="4.24644">
        <ele>141</ele>
        <time>2014-10-27T15:42:16Z</time>
      </trkpt>
      <trkpt lat="43.78697" lon="4.2467">
        <ele>145</ele>
        <time>2014-10-27T15:42:23Z</time>
      </trkpt>
      <trkpt lat="43.78681" lon="4.247">
        <ele>148</ele>
        <time>2014-10-27T15:42:30Z</time>
      </trkpt>
      <trkpt lat="43.7867" lon="4.2472">
        <ele>152</ele>
        <time>2014-10-27T15:42:37Z</time>
      </trkpt>
      <trkpt lat="43.78685" lon="4.24731">
        <ele>151</ele>
        <time>2014-10-27T15:42:47Z</time>
      </trkpt>
      <trkpt lat="43.78703" lon="4.24736">
        <ele>149</ele>
        <time>2014-10-27T15:42:54Z</time>
      </trkpt>
      <trkpt lat="43.78723" lon="4.24747">
        <ele>147</ele>
        <time>2014-10-27T15:43:01Z</time>
      </trkpt>
      <trkpt lat="43.78734" lon="4.24751">
        <ele>146</ele>
        <time>2014-10-27T15:43:04Z</time>
      </trkpt>
      <trkpt lat="43.78745" lon="4.24733">
        <ele>145</ele>
        <time>2014-10-27T15:43:11Z</time>
      </trkpt>
      <trkpt lat="43.78772" lon="4.24753">
        <ele>149</ele>
        <time>2014-10-27T15:43:22Z</time>
      </trkpt>
      <trkpt lat="43.78788" lon="4.24773">
        <ele>147</ele>
        <time>2014-10-27T15:43:27Z</time>
      </trkpt>
      <trkpt lat="43.78805" lon="4.2479">
        <ele>145</ele>
        <time>2014-10-27T15:43:33Z</time>
      </trkpt>
      <trkpt lat="43.78826" lon="4.24808">
        <ele>147</ele>
        <time>2014-10-27T15:43:38Z</time>
      </trkpt>
      <trkpt lat="43.78842" lon="4.24838">
        <ele>149</ele>
        <time>2014-10-27T15:43:44Z</time>
      </trkpt>
      <trkpt lat="43.7884" lon="4.2488">
        <ele>152</ele>
        <time>2014-10-27T15:43:51Z</time>
      </trkpt>
      <trkpt lat="43.78841" lon="4.24911">
        <ele>148</ele>
        <time>2014-10-27T15:43:56Z</time>
      </trkpt>
      <trkpt lat="43.78841" lon="4.24946">
        <ele>149</ele>
        <time>2014-10-27T15:44:02Z</time>
      </trkpt>
      <trkpt lat="43.78841" lon="4.24963">
        <ele>152</ele>
        <time>2014-10-27T15:44:08Z</time>
      </trkpt>
      <trkpt lat="43.78835" lon="4.24995">
        <ele>152</ele>
        <time>2014-10-27T15:44:16Z</time>
      </trkpt>
      <trkpt lat="43.78828" lon="4.25027">
        <ele>153</ele>
        <time>2014-10-27T15:44:24Z</time>
      </trkpt>
      <trkpt lat="43.78819" lon="4.25069">
        <ele>151</ele>
        <time>2014-10-27T15:44:30Z</time>
      </trkpt>
      <trkpt lat="43.78816" lon="4.2509">
        <ele>148</ele>
        <time>2014-10-27T15:44:33Z</time>
      </trkpt>
      <trkpt lat="43.78813" lon="4.25116">
        <ele>147</ele>
        <time>2014-10-27T15:44:37Z</time>
      </trkpt>
      <trkpt lat="43.788" lon="4.25146">
        <ele>142</ele>
        <time>2014-10-27T15:44:42Z</time>
      </trkpt>
      <trkpt lat="43.78783" lon="4.25185">
        <ele>143</ele>
        <time>2014-10-27T15:44:49Z</time>
      </trkpt>
      <trkpt lat="43.78771" lon="4.25214">
        <ele>141</ele>
        <time>2014-10-27T15:44:55Z</time>
      </trkpt>
      <trkpt lat="43.78778" lon="4.25251">
        <ele>143</ele>
        <time>2014-10-27T15:45:02Z</time>
      </trkpt>
      <trkpt lat="43.78786" lon="4.25286">
        <ele>146</ele>
        <time>2014-10-27T15:45:09Z</time>
      </trkpt>
      <trkpt lat="43.78791" lon="4.25324">
        <ele>146</ele>
        <time>2014-10-27T15:45:15Z</time>
      </trkpt>
      <trkpt lat="43.78786" lon="4.2535">
        <ele>142</ele>
        <time>2014-10-27T15:45:21Z</time>
      </trkpt>
      <trkpt lat="43.78772" lon="4.25362">
        <ele>141</ele>
        <time>2014-10-27T15:45:27Z</time>
      </trkpt>
      <trkpt lat="43.78752" lon="4.25369">
        <ele>140</ele>
        <time>2014-10-27T15:45:34Z</time>
      </trkpt>
      <trkpt lat="43.78728" lon="4.25379">
        <ele>134</ele>
        <time>2014-10-27T15:45:40Z</time>
      </trkpt>
      <trkpt lat="43.78726" lon="4.254">
        <ele>135</ele>
        <time>2014-10-27T15:45:45Z</time>
      </trkpt>
      <trkpt lat="43.78727" lon="4.2543">
        <ele>134</ele>
        <time>2014-10-27T15:45:52Z</time>
      </trkpt>
      <trkpt lat="43.7874" lon="4.25488">
        <ele>130</ele>
        <time>2014-10-27T15:46:06Z</time>
      </trkpt>
      <trkpt lat="43.7876" lon="4.25493">
        <ele>135</ele>
        <time>2014-10-27T15:46:13Z</time>
      </trkpt>
      <trkpt lat="43.78773" lon="4.25493">
        <ele>142</ele>
        <time>2014-10-27T15:46:21Z</time>
      </trkpt>
      <trkpt lat="43.7878" lon="4.25513">
        <ele>136</ele>
        <time>2014-10-27T15:46:29Z</time>
      </trkpt>
      <trkpt lat="43.78769" lon="4.25537">
        <ele>137</ele>
        <time>2014-10-27T15:46:35Z</time>
      </trkpt>
      <trkpt lat="43.78752" lon="4.25538">
        <ele>138</ele>
        <time>2014-10-27T15:46:41Z</time>
      </trkpt>
      <trkpt lat="43.78727" lon="4.25525">
        <ele>137</ele>
        <time>2014-10-27T15:46:47Z</time>
      </trkpt>
      <trkpt lat="43.787" lon="4.25542">
        <ele>131</ele>
        <time>2014-10-27T15:46:57Z</time>
      </trkpt>
      <trkpt lat="43.78644" lon="4.25553">
        <ele>126</ele>
        <time>2014-10-27T15:47:10Z</time>
      </trkpt>
      <trkpt lat="43.78625" lon="4.25557">
        <ele>125</ele>
        <time>2014-10-27T15:47:16Z</time>
      </trkpt>
      <trkpt lat="43.7861" lon="4.25569">
        <ele>123</ele>
        <time>2014-10-27T15:47:23Z</time>
      </trkpt>
      <trkpt lat="43.786" lon="4.25593">
        <ele>129</ele>
        <time>2014-10-27T15:47:30Z</time>
      </trkpt>
      <trkpt lat="43.78579" lon="4.25598">
        <ele>128</ele>
        <time>2014-10-27T15:47:35Z</time>
      </trkpt>
      <trkpt lat="43.78544" lon="4.25607">
        <ele>123</ele>
        <time>2014-10-27T15:47:43Z</time>
      </trkpt>
      <trkpt lat="43.78521" lon="4.25627">
        <ele>123</ele>
        <time>2014-10-27T15:47:49Z</time>
      </trkpt>
      <trkpt lat="43.7849" lon="4.25623">
        <ele>124</ele>
        <time>2014-10-27T15:47:57Z</time>
      </trkpt>
      <trkpt lat="43.78473" lon="4.2563">
        <ele>121</ele>
        <time>2014-10-27T15:48:03Z</time>
      </trkpt>
      <trkpt lat="43.78458" lon="4.25631">
        <ele>121</ele>
        <time>2014-10-27T15:48:08Z</time>
      </trkpt>
      <trkpt lat="43.78458" lon="4.25631">
        <ele>66.9</ele>
        <time>2014-10-27T15:48:14Z</time>
      </trkpt>
      <trkpt lat="43.78458" lon="4.25631">
        <ele>66.9</ele>
        <time>2014-10-27T15:48:17Z</time>
      </trkpt>
      <trkpt lat="43.7846" lon="4.25656">
        <ele>117</ele>
        <time>2014-10-27T15:48:17Z</time>
      </trkpt>
      <trkpt lat="43.78465" lon="4.25683">
        <ele>120</ele>
        <time>2014-10-27T15:48:24Z</time>
      </trkpt>
      <trkpt lat="43.78474" lon="4.25708">
        <ele>122</ele>
        <time>2014-10-27T15:48:30Z</time>
      </trkpt>
      <trkpt lat="43.78473" lon="4.25737">
        <ele>124</ele>
        <time>2014-10-27T15:48:35Z</time>
      </trkpt>
      <trkpt lat="43.78477" lon="4.25749">
        <ele>121</ele>
        <time>2014-10-27T15:48:40Z</time>
      </trkpt>
      <trkpt lat="43.78476" lon="4.25769">
        <ele>117</ele>
        <time>2014-10-27T15:48:48Z</time>
      </trkpt>
      <trkpt lat="43.78485" lon="4.25817">
        <ele>119</ele>
        <time>2014-10-27T15:48:58Z</time>
      </trkpt>
      <trkpt lat="43.78483" lon="4.25833">
        <ele>118</ele>
        <time>2014-10-27T15:49:05Z</time>
      </trkpt>
      <trkpt lat="43.7848" lon="4.25871">
        <ele>122</ele>
        <time>2014-10-27T15:49:17Z</time>
      </trkpt>
      <trkpt lat="43.7848" lon="4.259">
        <ele>120</ele>
        <time>2014-10-27T15:49:27Z</time>
      </trkpt>
      <trkpt lat="43.78483" lon="4.25931">
        <ele>121</ele>
        <time>2014-10-27T15:49:36Z</time>
      </trkpt>
      <trkpt lat="43.78479" lon="4.2595">
        <ele>122</ele>
        <time>2014-10-27T15:49:43Z</time>
      </trkpt>
      <trkpt lat="43.78469" lon="4.25975">
        <ele>121</ele>
        <time>2014-10-27T15:49:52Z</time>
      </trkpt>
      <trkpt lat="43.7846" lon="4.26004">
        <ele>117</ele>
        <time>2014-10-27T15:50:00Z</time>
      </trkpt>
      <trkpt lat="43.78455" lon="4.26019">
        <ele>118</ele>
        <time>2014-10-27T15:50:04Z</time>
      </trkpt>
      <trkpt lat="43.78441" lon="4.26053">
        <ele>117</ele>
        <time>2014-10-27T15:50:10Z</time>
      </trkpt>
      <trkpt lat="43.78431" lon="4.26095">
        <ele>113</ele>
        <time>2014-10-27T15:50:16Z</time>
      </trkpt>
      <trkpt lat="43.78419" lon="4.26136">
        <ele>115</ele>
        <time>2014-10-27T15:50:22Z</time>
      </trkpt>
      <trkpt lat="43.78415" lon="4.26157">
        <ele>113</ele>
        <time>2014-10-27T15:50:25Z</time>
      </trkpt>
      <trkpt lat="43.78409" lon="4.2618">
        <ele>109</ele>
        <time>2014-10-27T15:50:31Z</time>
      </trkpt>
      <trkpt lat="43.78395" lon="4.26191">
        <ele>110</ele>
        <time>2014-10-27T15:50:38Z</time>
      </trkpt>
      <trkpt lat="43.7838" lon="4.26228">
        <ele>112</ele>
        <time>2014-10-27T15:50:46Z</time>
      </trkpt>
      <trkpt lat="43.78377" lon="4.26244">
        <ele>112</ele>
        <time>2014-10-27T15:50:49Z</time>
      </trkpt>
      <trkpt lat="43.78363" lon="4.26279">
        <ele>110</ele>
        <time>2014-10-27T15:50:55Z</time>
      </trkpt>
      <trkpt lat="43.78345" lon="4.26316">
        <ele>110</ele>
        <time>2014-10-27T15:51:01Z</time>
      </trkpt>
      <trkpt lat="43.78326" lon="4.26351">
        <ele>110</ele>
        <time>2014-10-27T15:51:07Z</time>
      </trkpt>
      <trkpt lat="43.78311" lon="4.26386">
        <ele>109</ele>
        <time>2014-10-27T15:51:13Z</time>
      </trkpt>
      <trkpt lat="43.78288" lon="4.26407">
        <ele>112</ele>
        <time>2014-10-27T15:51:19Z</time>
      </trkpt>
      <trkpt lat="43.7828" lon="4.2643">
        <ele>113</ele>
        <time>2014-10-27T15:51:28Z</time>
      </trkpt>
      <trkpt lat="43.78265" lon="4.26452">
        <ele>113</ele>
        <time>2014-10-27T15:51:35Z</time>
      </trkpt>
      <trkpt lat="43.7825" lon="4.26446">
        <ele>112</ele>
        <time>2014-10-27T15:51:43Z</time>
      </trkpt>
      <trkpt lat="43.78235" lon="4.26428">
        <ele>115</ele>
        <time>2014-10-27T15:51:56Z</time>
      </trkpt>
      <trkpt lat="43.78219" lon="4.26413">
        <ele>116</ele>
        <time>2014-10-27T15:52:05Z</time>
      </trkpt>
      <trkpt lat="43.78201" lon="4.26399">
        <ele>118</ele>
        <time>2014-10-27T15:52:17Z</time>
      </trkpt>
      <trkpt lat="43.78185" lon="4.2638">
        <ele>121</ele>
        <time>2014-10-27T15:52:30Z</time>
      </trkpt>
      <trkpt lat="43.78166" lon="4.26377">
        <ele>123</ele>
        <time>2014-10-27T15:52:43Z</time>
      </trkpt>
      <trkpt lat="43.78151" lon="4.26378">
        <ele>125</ele>
        <time>2014-10-27T15:52:57Z</time>
      </trkpt>
      <trkpt lat="43.78142" lon="4.26365">
        <ele>126</ele>
        <time>2014-10-27T15:53:05Z</time>
      </trkpt>
      <trkpt lat="43.78125" lon="4.26351">
        <ele>132</ele>
        <time>2014-10-27T15:53:18Z</time>
      </trkpt>
      <trkpt lat="43.78108" lon="4.26364">
        <ele>133</ele>
        <time>2014-10-27T15:53:31Z</time>
      </trkpt>
      <trkpt lat="43.78088" lon="4.26376">
        <ele>132</ele>
        <time>2014-10-27T15:53:44Z</time>
      </trkpt>
      <trkpt lat="43.7807" lon="4.26366">
        <ele>132</ele>
        <time>2014-10-27T15:53:56Z</time>
      </trkpt>
      <trkpt lat="43.78058" lon="4.26363">
        <ele>132</ele>
        <time>2014-10-27T15:54:02Z</time>
      </trkpt>
      <trkpt lat="43.78046" lon="4.26353">
        <ele>131</ele>
        <time>2014-10-27T15:54:09Z</time>
      </trkpt>
      <trkpt lat="43.78026" lon="4.26342">
        <ele>131</ele>
        <time>2014-10-27T15:54:19Z</time>
      </trkpt>
      <trkpt lat="43.78029" lon="4.26308">
        <ele>133</ele>
        <time>2014-10-27T15:54:31Z</time>
      </trkpt>
      <trkpt lat="43.78005" lon="4.26298">
        <ele>135</ele>
        <time>2014-10-27T15:54:44Z</time>
      </trkpt>
      <trkpt lat="43.77988" lon="4.26321">
        <ele>136</ele>
        <time>2014-10-27T15:54:55Z</time>
      </trkpt>
      <trkpt lat="43.7798" lon="4.26337">
        <ele>138</ele>
        <time>2014-10-27T15:55:00Z</time>
      </trkpt>
      <trkpt lat="43.77968" lon="4.26363">
        <ele>141</ele>
        <time>2014-10-27T15:55:08Z</time>
      </trkpt>
      <trkpt lat="43.77961" lon="4.26388">
        <ele>144</ele>
        <time>2014-10-27T15:55:15Z</time>
      </trkpt>
      <trkpt lat="43.77956" lon="4.26421">
        <ele>143</ele>
        <time>2014-10-27T15:55:22Z</time>
      </trkpt>
      <trkpt lat="43.77946" lon="4.26448">
        <ele>139</ele>
        <time>2014-10-27T15:55:27Z</time>
      </trkpt>
      <trkpt lat="43.77933" lon="4.26475">
        <ele>137</ele>
        <time>2014-10-27T15:55:33Z</time>
      </trkpt>
      <trkpt lat="43.77928" lon="4.26489">
        <ele>137</ele>
        <time>2014-10-27T15:55:36Z</time>
      </trkpt>
      <trkpt lat="43.7792" lon="4.26526">
        <ele>135</ele>
        <time>2014-10-27T15:55:43Z</time>
      </trkpt>
      <trkpt lat="43.77908" lon="4.26553">
        <ele>132</ele>
        <time>2014-10-27T15:55:49Z</time>
      </trkpt>
      <trkpt lat="43.77891" lon="4.26587">
        <ele>134</ele>
        <time>2014-10-27T15:55:55Z</time>
      </trkpt>
      <trkpt lat="43.77873" lon="4.26614">
        <ele>133</ele>
        <time>2014-10-27T15:56:00Z</time>
      </trkpt>
      <trkpt lat="43.77845" lon="4.2664">
        <ele>132</ele>
        <time>2014-10-27T15:56:06Z</time>
      </trkpt>
      <trkpt lat="43.77832" lon="4.26654">
        <ele>129</ele>
        <time>2014-10-27T15:56:09Z</time>
      </trkpt>
      <trkpt lat="43.77808" lon="4.26681">
        <ele>125</ele>
        <time>2014-10-27T15:56:14Z</time>
      </trkpt>
      <trkpt lat="43.77777" lon="4.26711">
        <ele>126</ele>
        <time>2014-10-27T15:56:20Z</time>
      </trkpt>
      <trkpt lat="43.77758" lon="4.26718">
        <ele>126</ele>
        <time>2014-10-27T15:56:23Z</time>
      </trkpt>
      <trkpt lat="43.77714" lon="4.26734">
        <ele>123</ele>
        <time>2014-10-27T15:56:29Z</time>
      </trkpt>
      <trkpt lat="43.77689" lon="4.26742">
        <ele>122</ele>
        <time>2014-10-27T15:56:32Z</time>
      </trkpt>
      <trkpt lat="43.77647" lon="4.26755">
        <ele>124</ele>
        <time>2014-10-27T15:56:37Z</time>
      </trkpt>
      <trkpt lat="43.77604" lon="4.26766">
        <ele>117</ele>
        <time>2014-10-27T15:56:42Z</time>
      </trkpt>
      <trkpt lat="43.77554" lon="4.26803">
        <ele>111</ele>
        <time>2014-10-27T15:56:48Z</time>
      </trkpt>
      <trkpt lat="43.7752" lon="4.2686">
        <ele>108</ele>
        <time>2014-10-27T15:56:54Z</time>
      </trkpt>
      <trkpt lat="43.77482" lon="4.26904">
        <ele>106</ele>
        <time>2014-10-27T15:57:00Z</time>
      </trkpt>
      <trkpt lat="43.77427" lon="4.26951">
        <ele>103</ele>
        <time>2014-10-27T15:57:07Z</time>
      </trkpt>
      <trkpt lat="43.774" lon="4.26996">
        <ele>101</ele>
        <time>2014-10-27T15:57:12Z</time>
      </trkpt>
      <trkpt lat="43.77361" lon="4.27034">
        <ele>98</ele>
        <time>2014-10-27T15:57:18Z</time>
      </trkpt>
      <trkpt lat="43.77342" lon="4.27092">
        <ele>96</ele>
        <time>2014-10-27T15:57:24Z</time>
      </trkpt>
      <trkpt lat="43.77323" lon="4.27154">
        <ele>92</ele>
        <time>2014-10-27T15:57:30Z</time>
      </trkpt>
      <trkpt lat="43.77292" lon="4.27209">
        <ele>89</ele>
        <time>2014-10-27T15:57:36Z</time>
      </trkpt>
      <trkpt lat="43.77254" lon="4.27255">
        <ele>91</ele>
        <time>2014-10-27T15:57:42Z</time>
      </trkpt>
      <trkpt lat="43.7721" lon="4.27283">
        <ele>87</ele>
        <time>2014-10-27T15:57:48Z</time>
      </trkpt>
      <trkpt lat="43.77167" lon="4.27312">
        <ele>86</ele>
        <time>2014-10-27T15:57:54Z</time>
      </trkpt>
      <trkpt lat="43.7715" lon="4.27337">
        <ele>86</ele>
        <time>2014-10-27T15:57:57Z</time>
      </trkpt>
      <trkpt lat="43.77135" lon="4.27361">
        <ele>85</ele>
        <time>2014-10-27T15:58:00Z</time>
      </trkpt>
      <trkpt lat="43.77099" lon="4.27407">
        <ele>82</ele>
        <time>2014-10-27T15:58:06Z</time>
      </trkpt>
      <trkpt lat="43.77069" lon="4.27454">
        <ele>81</ele>
        <time>2014-10-27T15:58:12Z</time>
      </trkpt>
      <trkpt lat="43.77059" lon="4.2749">
        <ele>83</ele>
        <time>2014-10-27T15:58:17Z</time>
      </trkpt>
      <trkpt lat="43.77067" lon="4.2752">
        <ele>82</ele>
        <time>2014-10-27T15:58:21Z</time>
      </trkpt>
      <trkpt lat="43.7707" lon="4.27545">
        <ele>81</ele>
        <time>2014-10-27T15:58:25Z</time>
      </trkpt>
      <trkpt lat="43.77067" lon="4.27573">
        <ele>81</ele>
        <time>2014-10-27T15:58:30Z</time>
      </trkpt>
      <trkpt lat="43.77053" lon="4.27568">
        <ele>81</ele>
        <time>2014-10-27T15:58:37Z</time>
      </trkpt>
      <trkpt lat="43.77043" lon="4.27543">
        <ele>80</ele>
        <time>2014-10-27T15:58:43Z</time>
      </trkpt>
      <trkpt lat="43.77035" lon="4.27524">
        <ele>79</ele>
        <time>2014-10-27T15:58:48Z</time>
      </trkpt>
      <trkpt lat="43.7703" lon="4.27507">
        <ele>77</ele>
        <time>2014-10-27T15:58:52Z</time>
      </trkpt>
      <trkpt lat="43.77026" lon="4.27494">
        <ele>77</ele>
        <time>2014-10-27T15:58:55Z</time>
      </trkpt>
      <trkpt lat="43.77023" lon="4.27481">
        <ele>77</ele>
        <time>2014-10-27T15:58:58Z</time>
      </trkpt>
      <trkpt lat="43.77014" lon="4.27455">
        <ele>77</ele>
        <time>2014-10-27T15:59:04Z</time>
      </trkpt>
      <trkpt lat="43.77006" lon="4.27432">
        <ele>77</ele>
        <time>2014-10-27T15:59:10Z</time>
      </trkpt>
      <trkpt lat="43.76997" lon="4.27406">
        <ele>78</ele>
        <time>2014-10-27T15:59:17Z</time>
      </trkpt>
      <trkpt lat="43.76988" lon="4.27379">
        <ele>77</ele>
        <time>2014-10-27T15:59:24Z</time>
      </trkpt>
      <trkpt lat="43.76981" lon="4.2735">
        <ele>77</ele>
        <time>2014-10-27T15:59:31Z</time>
      </trkpt>
      <trkpt lat="43.76927" lon="4.27373">
        <ele>75</ele>
        <time>2014-10-27T15:59:42Z</time>
      </trkpt>
      <trkpt lat="43.76912" lon="4.27415">
        <ele>75</ele>
        <time>2014-10-27T15:59:48Z</time>
      </trkpt>
      <trkpt lat="43.76911" lon="4.27439">
        <ele>76</ele>
        <time>2014-10-27T15:59:51Z</time>
      </trkpt>
      <trkpt lat="43.76909" lon="4.27463">
        <ele>75</ele>
        <time>2014-10-27T15:59:54Z</time>
      </trkpt>
      <trkpt lat="43.76909" lon="4.27487">
        <ele>74</ele>
        <time>2014-10-27T15:59:57Z</time>
      </trkpt>
      <trkpt lat="43.76906" lon="4.27539">
        <ele>72</ele>
        <time>2014-10-27T16:00:03Z</time>
      </trkpt>
      <trkpt lat="43.76904" lon="4.27567">
        <ele>72</ele>
        <time>2014-10-27T16:00:06Z</time>
      </trkpt>
      <trkpt lat="43.76898" lon="4.27597">
        <ele>73</ele>
        <time>2014-10-27T16:00:09Z</time>
      </trkpt>
      <trkpt lat="43.76883" lon="4.27642">
        <ele>72</ele>
        <time>2014-10-27T16:00:14Z</time>
      </trkpt>
      <trkpt lat="43.76869" lon="4.27681">
        <ele>73</ele>
        <time>2014-10-27T16:00:19Z</time>
      </trkpt>
      <trkpt lat="43.76865" lon="4.27707">
        <ele>71</ele>
        <time>2014-10-27T16:00:22Z</time>
      </trkpt>
      <trkpt lat="43.76859" lon="4.27742">
        <ele>72</ele>
        <time>2014-10-27T16:00:26Z</time>
      </trkpt>
      <trkpt lat="43.76858" lon="4.27779">
        <ele>73</ele>
        <time>2014-10-27T16:00:31Z</time>
      </trkpt>
      <trkpt lat="43.7684" lon="4.27802">
        <ele>74</ele>
        <time>2014-10-27T16:00:36Z</time>
      </trkpt>
      <trkpt lat="43.76813" lon="4.27804">
        <ele>74</ele>
        <time>2014-10-27T16:00:42Z</time>
      </trkpt>
      <trkpt lat="43.76792" lon="4.27799">
        <ele>76</ele>
        <time>2014-10-27T16:00:49Z</time>
      </trkpt>
      <trkpt lat="43.76766" lon="4.27812">
        <ele>73</ele>
        <time>2014-10-27T16:00:54Z</time>
      </trkpt>
      <trkpt lat="43.76755" lon="4.27835">
        <ele>71</ele>
        <time>2014-10-27T16:00:57Z</time>
      </trkpt>
      <trkpt lat="43.7677" lon="4.27888">
        <ele>71</ele>
        <time>2014-10-27T16:01:04Z</time>
      </trkpt>
      <trkpt lat="43.76785" lon="4.27935">
        <ele>71</ele>
        <time>2014-10-27T16:01:10Z</time>
      </trkpt>
      <trkpt lat="43.76784" lon="4.27971">
        <ele>72</ele>
        <time>2014-10-27T16:01:16Z</time>
      </trkpt>
      <trkpt lat="43.76763" lon="4.28007">
        <ele>72</ele>
        <time>2014-10-27T16:01:22Z</time>
      </trkpt>
      <trkpt lat="43.76773" lon="4.28042">
        <ele>72</ele>
        <time>2014-10-27T16:01:27Z</time>
      </trkpt>
      <trkpt lat="43.76783" lon="4.28073">
        <ele>71</ele>
        <time>2014-10-27T16:01:33Z</time>
      </trkpt>
      <trkpt lat="43.76766" lon="4.28092">
        <ele>72</ele>
        <time>2014-10-27T16:01:38Z</time>
      </trkpt>
      <trkpt lat="43.76737" lon="4.28118">
        <ele>72</ele>
        <time>2014-10-27T16:01:44Z</time>
      </trkpt>
      <trkpt lat="43.76704" lon="4.28154">
        <ele>71</ele>
        <time>2014-10-27T16:01:50Z</time>
      </trkpt>
      <trkpt lat="43.76666" lon="4.28183">
        <ele>69</ele>
        <time>2014-10-27T16:01:56Z</time>
      </trkpt>
      <trkpt lat="43.7663" lon="4.28206">
        <ele>69</ele>
        <time>2014-10-27T16:02:02Z</time>
      </trkpt>
      <trkpt lat="43.76596" lon="4.28228">
        <ele>70</ele>
        <time>2014-10-27T16:02:08Z</time>
      </trkpt>
      <trkpt lat="43.76564" lon="4.28248">
        <ele>70</ele>
        <time>2014-10-27T16:02:14Z</time>
      </trkpt>
      <trkpt lat="43.76541" lon="4.28264">
        <ele>68</ele>
        <time>2014-10-27T16:02:20Z</time>
      </trkpt>
      <trkpt lat="43.76511" lon="4.28281">
        <ele>70</ele>
        <time>2014-10-27T16:02:26Z</time>
      </trkpt>
      <trkpt lat="43.76491" lon="4.28295">
        <ele>73</ele>
        <time>2014-10-27T16:02:32Z</time>
      </trkpt>
      <trkpt lat="43.76489" lon="4.28319">
        <ele>73</ele>
        <time>2014-10-27T16:02:38Z</time>
      </trkpt>
      <trkpt lat="43.76494" lon="4.28353">
        <ele>73</ele>
        <time>2014-10-27T16:02:44Z</time>
      </trkpt>
      <trkpt lat="43.765" lon="4.28374">
        <ele>71</ele>
        <time>2014-10-27T16:02:49Z</time>
      </trkpt>
      <trkpt lat="43.76506" lon="4.28405">
        <ele>73</ele>
        <time>2014-10-27T16:02:54Z</time>
      </trkpt>
      <trkpt lat="43.76513" lon="4.28447">
        <ele>74</ele>
        <time>2014-10-27T16:03:00Z</time>
      </trkpt>
      <trkpt lat="43.76518" lon="4.28473">
        <ele>73</ele>
        <time>2014-10-27T16:03:04Z</time>
      </trkpt>
      <trkpt lat="43.76539" lon="4.28495">
        <ele>75</ele>
        <time>2014-10-27T16:03:11Z</time>
      </trkpt>
      <trkpt lat="43.76558" lon="4.28497">
        <ele>79</ele>
        <time>2014-10-27T16:03:17Z</time>
      </trkpt>
      <trkpt lat="43.7656" lon="4.28498">
        <ele>79</ele>
        <time>2014-10-27T16:03:19Z</time>
      </trkpt>
      <trkpt lat="43.7656" lon="4.28498">
        <ele>20.2</ele>
        <time>2014-10-27T16:03:25Z</time>
      </trkpt>
      <trkpt lat="43.7656" lon="4.28498">
        <ele>20.2</ele>
        <time>2014-10-27T16:04:17Z</time>
      </trkpt>
    </trkseg>
  </trk>
</gpx>